Observation data for Dozier on 01/22/2019      Previous  Date  Next       Current Mesonet Observations  Soil Data  Daily Summary Page  Observations in Plain Language
KDO1 220600Z 18011KT 12/02 A2962 RMK A01 T01220018  RH  049%=      5-min Rain = 0
KDO1 220601Z 17011KT 12/02 A2962 RMK A01 T01220018  RH  049%=      5-min Rain = 0
KDO1 220602Z 18011KT 12/02 A2962 RMK A01 T01220018  RH  049%=      5-min Rain = 0
KDO1 220603Z 18011KT 12/02 A2962 RMK A01 T01210018  RH  049%=      5-min Rain = 0
KDO1 220604Z 17011KT 12/02 A2962 RMK A01 T01220018  RH  049%=      5-min Rain = 0
KDO1 220605Z 18010KT 12/02 A2962 RMK A01 T01220018  RH  049%=      5-min Rain = 0
KDO1 220606Z 18011KT 12/02 A2962 RMK A01 T01210018  RH  049%=      5-min Rain = 0
KDO1 220607Z 17011KT 12/02 A2962 RMK A01 T01210018  RH  049%=      5-min Rain = 0
KDO1 220608Z 18010KT 12/02 A2962 RMK A01 T01210018  RH  049%=      5-min Rain = 0
KDO1 220609Z 18010KT 12/02 A2962 RMK A01 T01210018  RH  049%=      5-min Rain = 0
KDO1 220610Z 18010KT 12/02 A2963 RMK A01 T01210018  RH  049%=      5-min Rain = 0
KDO1 220611Z 18011KT 12/02 A2963 RMK A01 T01210018  RH  049%=      5-min Rain = 0
KDO1 220612Z 18011KT 12/02 A2962 RMK A01 T01200018  RH  050%=      5-min Rain = 0
KDO1 220613Z 18012KT 12/02 A2962 RMK A01 T01200018  RH  050%=      5-min Rain = 0
KDO1 220614Z 18013KT 12/02 A2962 RMK A01 T01210019  RH  050%=      5-min Rain = 0
KDO1 220615Z 18013KT 12/02 A2962 RMK A01 T01220019  RH  049%=      5-min Rain = 0
KDO1 220616Z 18013KT 12/02 A2962 RMK A01 T01230019  RH  049%=      5-min Rain = 0
KDO1 220617Z 18013KT 12/02 A2962 RMK A01 T01230018  RH  049%=      5-min Rain = 0
KDO1 220618Z 18012KT 12/02 A2962 RMK A01 T01230019  RH  049%=      5-min Rain = 0
KDO1 220619Z 18011KT 12/02 A2962 RMK A01 T01210018  RH  049%=      5-min Rain = 0
KDO1 220620Z 18011KT 12/02 A2962 RMK A01 T01200018  RH  050%=      5-min Rain = 0
KDO1 220621Z 18013KT 12/02 A2962 RMK A01 T01200019  RH  050%=      5-min Rain = 0
KDO1 220622Z 18011KT 12/02 A2962 RMK A01 T01200019  RH  050%=      5-min Rain = 0
KDO1 220623Z 18011KT 12/02 A2962 RMK A01 T01200019  RH  050%=      5-min Rain = 0
KDO1 220624Z 18011KT 12/02 A2962 RMK A01 T01190019  RH  050%=      5-min Rain = 0
KDO1 220625Z 18014KT 12/02 A2962 RMK A01 T01190019  RH  050%=      5-min Rain = 0
KDO1 220626Z 18013KT 12/02 A2962 RMK A01 T01210020  RH  050%=      5-min Rain = 0
KDO1 220627Z 18012KT 12/02 A2962 RMK A01 T01220019  RH  050%=      5-min Rain = 0
KDO1 220628Z 18014KT 12/02 A2962 RMK A01 T01200019  RH  050%=      5-min Rain = 0
KDO1 220629Z 18014KT 12/02 A2962 RMK A01 T01200019  RH  050%=      5-min Rain = 0
KDO1 220630Z 18015KT 12/02 A2962 RMK A01 T01200020  RH  050%=      5-min Rain = 0
KDO1 220631Z 17014KT 12/02 A2962 RMK A01 T01210020  RH  050%=      5-min Rain = 0
KDO1 220632Z 17013KT 12/02 A2962 RMK A01 T01220020  RH  050%=      5-min Rain = 0
KDO1 220633Z 17014KT 12/02 A2962 RMK A01 T01220019  RH  050%=      5-min Rain = 0
KDO1 220634Z 17014KT 12/02 A2962 RMK A01 T01220019  RH  050%=      5-min Rain = 0
KDO1 220635Z 17014KT 12/02 A2962 RMK A01 T01220019  RH  049%=      5-min Rain = 0
KDO1 220636Z 17014KT 12/02 A2962 RMK A01 T01220019  RH  049%=      5-min Rain = 0
KDO1 220637Z 17014KT 12/02 A2962 RMK A01 T01230019  RH  049%=      5-min Rain = 0
KDO1 220638Z 17014KT 12/02 A2962 RMK A01 T01230019  RH  049%=      5-min Rain = 0
KDO1 220639Z 17016KT 12/02 A2962 RMK A01 T01230019  RH  049%=      5-min Rain = 0
KDO1 220640Z 17014KT 12/02 A2962 RMK A01 T01230020  RH  049%=      5-min Rain = 0
KDO1 220641Z 17014KT 12/02 A2962 RMK A01 T01240020  RH  049%=      5-min Rain = 0
KDO1 220642Z 18013G18KT 12/02 A2962 RMK A01 T01230020  RH  049%=      5-min Rain = 0
KDO1 220643Z 17013KT 12/02 A2962 RMK A01 T01220020  RH  050%=      5-min Rain = 0
KDO1 220644Z 17014KT 12/02 A2962 RMK A01 T01220020  RH  050%=      5-min Rain = 0
KDO1 220645Z 17013G18KT 12/02 A2962 RMK A01 T01220020  RH  050%=      5-min Rain = 0
KDO1 220646Z 17016KT 12/02 A2962 RMK A01 T01230020  RH  050%=      5-min Rain = 0
KDO1 220647Z 17013KT 12/02 A2962 RMK A01 T01220020  RH  050%=      5-min Rain = 0
KDO1 220648Z 17014KT 12/02 A2962 RMK A01 T01220020  RH  050%=      5-min Rain = 0
KDO1 220649Z 17013KT 12/02 A2962 RMK A01 T01210020  RH  050%=      5-min Rain = 0
KDO1 220650Z 18013KT 12/02 A2962 RMK A01 T01210020  RH  050%=      5-min Rain = 0
KDO1 220651Z 17013KT 12/02 A2962 RMK A01 T01210020  RH  050%=      5-min Rain = 0
KDO1 220652Z 18014KT 12/02 A2962 RMK A01 T01210021  RH  050%=      5-min Rain = 0
KDO1 220653Z 17013KT 12/02 A2962 RMK A01 T01210020  RH  050%=      5-min Rain = 0
KDO1 220654Z 17013KT 12/02 A2962 RMK A01 T01210021  RH  050%=      5-min Rain = 0
KDO1 220655Z 17012KT 12/02 A2962 RMK A01 T01210021  RH  050%=      5-min Rain = 0
KDO1 220656Z 17012KT 12/02 A2962 RMK A01 T01200021  RH  051%=      5-min Rain = 0
KDO1 220657Z 17013G19KT 12/02 A2962 RMK A01 T01200021  RH  051%=      5-min Rain = 0
KDO1 220658Z 17013KT 12/02 A2962 RMK A01 T01200021  RH  051%=      5-min Rain = 0
KDO1 220659Z 17013KT 12/02 A2962 RMK A01 T01200021  RH  051%=      5-min Rain = 0
KDO1 220700Z 17013KT 12/02 A2962 RMK A01 T01200021  RH  051%=      5-min Rain = 0
KDO1 220701Z 17012KT 12/02 A2962 RMK A01 T01190021  RH  051%=      5-min Rain = 0
KDO1 220702Z 18012KT 12/02 A2962 RMK A01 T01190022  RH  051%=      5-min Rain = 0
KDO1 220703Z 17011G16KT 12/02 A2963 RMK A01 T01180021  RH  052%=      5-min Rain = 0
KDO1 220704Z 17013KT 12/02 A2962 RMK A01 T01170022  RH  052%=      5-min Rain = 0
KDO1 220705Z 17012G18KT 12/02 A2963 RMK A01 T01170022  RH  052%=      5-min Rain = 0
KDO1 220706Z 17014KT 12/02 A2963 RMK A01 T01170022  RH  052%=      5-min Rain = 0
KDO1 220707Z 17014KT 12/02 A2963 RMK A01 T01170022  RH  052%=      5-min Rain = 0
KDO1 220708Z 17012KT 12/02 A2963 RMK A01 T01180023  RH  052%=      5-min Rain = 0
KDO1 220709Z 17012KT 12/02 A2963 RMK A01 T01180023  RH  052%=      5-min Rain = 0
KDO1 220710Z 17012KT 12/02 A2963 RMK A01 T01180023  RH  052%=      5-min Rain = 0
KDO1 220711Z 18012KT 12/02 A2963 RMK A01 T01170023  RH  053%=      5-min Rain = 0
KDO1 220712Z 17013KT 12/02 A2963 RMK A01 T01170023  RH  053%=      5-min Rain = 0
KDO1 220713Z 17012KT 12/02 A2963 RMK A01 T01170024  RH  053%=      5-min Rain = 0
KDO1 220714Z 18012KT 12/02 A2963 RMK A01 T01170024  RH  053%=      5-min Rain = 0
KDO1 220715Z 17011KT 12/02 A2962 RMK A01 T01160024  RH  053%=      5-min Rain = 0
KDO1 220716Z 17011KT 12/02 A2963 RMK A01 T01160024  RH  053%=      5-min Rain = 0
KDO1 220717Z 17010KT 12/02 A2963 RMK A01 T01160024  RH  053%=      5-min Rain = 0
KDO1 220718Z 18011KT 12/03 A2963 RMK A01 T01160025  RH  053%=      5-min Rain = 0
KDO1 220719Z 18010KT 12/03 A2963 RMK A01 T01150025  RH  054%=      5-min Rain = 0
KDO1 220720Z 18009KT 12/03 A2963 RMK A01 T01150025  RH  054%=      5-min Rain = 0
KDO1 220721Z 18008KT 12/03 A2963 RMK A01 T01150025  RH  054%=      5-min Rain = 0
KDO1 220722Z 18008KT 11/03 A2963 RMK A01 T01140025  RH  054%=      5-min Rain = 0
KDO1 220723Z 17007KT 11/03 A2963 RMK A01 T01130025  RH  054%=      5-min Rain = 0
KDO1 220724Z 17009KT 11/03 A2963 RMK A01 T01130025  RH  055%=      5-min Rain = 0
KDO1 220725Z 18007KT 11/03 A2963 RMK A01 T01130025  RH  055%=      5-min Rain = 0
KDO1 220726Z 18007KT 11/03 A2963 RMK A01 T01120025  RH  055%=      5-min Rain = 0
KDO1 220727Z 18006KT 11/03 A2964 RMK A01 T01120026  RH  055%=      5-min Rain = 0
KDO1 220728Z 19006KT 11/03 A2964 RMK A01 T01120025  RH  055%=      5-min Rain = 0
KDO1 220729Z 19007KT 11/03 A2964 RMK A01 T01100025  RH  056%=      5-min Rain = 0
KDO1 220730Z 18007KT 11/03 A2964 RMK A01 T01090025  RH  056%=      5-min Rain = 0
KDO1 220731Z 18009KT 11/03 A2964 RMK A01 T01080026  RH  057%=      5-min Rain = 0
KDO1 220732Z 18008KT 11/03 A2964 RMK A01 T01080026  RH  057%=      5-min Rain = 0
KDO1 220733Z 19007KT 11/03 A2964 RMK A01 T01070026  RH  057%=      5-min Rain = 0
KDO1 220734Z 18008KT 11/03 A2964 RMK A01 T01060026  RH  058%=      5-min Rain = 0
KDO1 220735Z 19008KT 11/03 A2964 RMK A01 T01050026  RH  058%=      5-min Rain = 0
KDO1 220736Z 18008KT 11/03 A2964 RMK A01 T01050026  RH  058%=      5-min Rain = 0
KDO1 220737Z 18008KT 10/03 A2964 RMK A01 T01030026  RH  059%=      5-min Rain = 0
KDO1 220738Z 18008KT 10/03 A2964 RMK A01 T01030026  RH  059%=      5-min Rain = 0
KDO1 220739Z 18008KT 10/03 A2964 RMK A01 T01020026  RH  059%=      5-min Rain = 0
KDO1 220740Z 17008KT 10/03 A2963 RMK A01 T01010026  RH  060%=      5-min Rain = 0
KDO1 220741Z 17008KT 10/03 A2963 RMK A01 T01010027  RH  060%=      5-min Rain = 0
KDO1 220742Z 17008KT 10/03 A2963 RMK A01 T01010027  RH  060%=      5-min Rain = 0
KDO1 220743Z 17008KT 10/03 A2963 RMK A01 T01020027  RH  060%=      5-min Rain = 0
KDO1 220744Z 17009KT 10/03 A2963 RMK A01 T01020027  RH  060%=      5-min Rain = 0
KDO1 220745Z 17009KT 10/03 A2963 RMK A01 T01020028  RH  060%=      5-min Rain = 0
KDO1 220746Z 17009KT 10/03 A2963 RMK A01 T01020028  RH  060%=      5-min Rain = 0
KDO1 220747Z 17009KT 10/03 A2963 RMK A01 T01020028  RH  060%=      5-min Rain = 0
KDO1 220748Z 17008KT 10/03 A2963 RMK A01 T01020028  RH  060%=      5-min Rain = 0
KDO1 220749Z 16009KT 10/03 A2963 RMK A01 T01020029  RH  060%=      5-min Rain = 0
KDO1 220750Z 17008KT 10/03 A2963 RMK A01 T01020029  RH  060%=      5-min Rain = 0
KDO1 220751Z 17010KT 10/03 A2963 RMK A01 T01020029  RH  060%=      5-min Rain = 0
KDO1 220752Z 16008KT 10/03 A2963 RMK A01 T01020029  RH  061%=      5-min Rain = 0
KDO1 220753Z 17008KT 10/03 A2963 RMK A01 T01020030  RH  061%=      5-min Rain = 0
KDO1 220754Z 17009KT 10/03 A2963 RMK A01 T01030030  RH  061%=      5-min Rain = 0
KDO1 220755Z 17008KT 10/03 A2963 RMK A01 T01030030  RH  060%=      5-min Rain = 0
KDO1 220756Z 17009KT 10/03 A2963 RMK A01 T01040031  RH  060%=      5-min Rain = 0
KDO1 220757Z 17008KT 10/03 A2962 RMK A01 T01040031  RH  061%=      5-min Rain = 0
KDO1 220758Z 17008KT 10/03 A2962 RMK A01 T01030031  RH  061%=      5-min Rain = 0
KDO1 220759Z 17008KT 10/03 A2962 RMK A01 T01030031  RH  061%=      5-min Rain = 0
KDO1 220800Z 17009KT 10/03 A2963 RMK A01 T01020031  RH  061%=      5-min Rain = 0
KDO1 220801Z 17009KT 10/03 A2963 RMK A01 T01030032  RH  061%=      5-min Rain = 0
KDO1 220802Z 17009KT 10/03 A2963 RMK A01 T01030032  RH  061%=      5-min Rain = 0
KDO1 220803Z 17008KT 10/03 A2963 RMK A01 T01030032  RH  061%=      5-min Rain = 0
KDO1 220804Z 17009KT 10/03 A2963 RMK A01 T01030032  RH  062%=      5-min Rain = 0
KDO1 220805Z 17008KT 10/03 A2963 RMK A01 T01020032  RH  062%=      5-min Rain = 0
KDO1 220806Z 17009KT 10/03 A2963 RMK A01 T01020032  RH  062%=      5-min Rain = 0
KDO1 220807Z 17008KT 10/03 A2963 RMK A01 T01010032  RH  062%=      5-min Rain = 0
KDO1 220808Z 17009KT 10/03 A2963 RMK A01 T01010032  RH  062%=      5-min Rain = 0
KDO1 220809Z 18010KT 10/03 A2963 RMK A01 T01010033  RH  062%=      5-min Rain = 0
KDO1 220810Z 17010KT 10/03 A2963 RMK A01 T01010033  RH  062%=      5-min Rain = 0
KDO1 220811Z 17010KT 10/03 A2963 RMK A01 T01020033  RH  062%=      5-min Rain = 0
KDO1 220812Z 17010KT 10/03 A2963 RMK A01 T01020034  RH  063%=      5-min Rain = 0
KDO1 220813Z 17009KT 10/03 A2963 RMK A01 T01020034  RH  063%=      5-min Rain = 0
KDO1 220814Z 17009KT 10/03 A2963 RMK A01 T01010034  RH  063%=      5-min Rain = 0
KDO1 220815Z 18009KT 10/03 A2963 RMK A01 T01010034  RH  063%=      5-min Rain = 0
KDO1 220816Z 18010KT 10/03 A2963 RMK A01 T01000034  RH  063%=      5-min Rain = 0
KDO1 220817Z 18009KT 10/03 A2963 RMK A01 T01000034  RH  064%=      5-min Rain = 0
KDO1 220818Z 18009KT 10/03 A2963 RMK A01 T01000034  RH  064%=      5-min Rain = 0
KDO1 220819Z 18009KT 10/03 A2963 RMK A01 T00990034  RH  064%=      5-min Rain = 0
KDO1 220820Z 18009KT 10/03 A2963 RMK A01 T00990034  RH  064%=      5-min Rain = 0
KDO1 220821Z 18009KT 10/03 A2963 RMK A01 T00980034  RH  064%=      5-min Rain = 0
KDO1 220822Z 18009KT 10/03 A2963 RMK A01 T00970033  RH  065%=      5-min Rain = 0
KDO1 220823Z 18010KT 10/03 A2963 RMK A01 T00950033  RH  065%=      5-min Rain = 0
KDO1 220824Z 18010KT 10/03 A2963 RMK A01 T00950033  RH  066%=      5-min Rain = 0
KDO1 220825Z 18009KT 09/03 A2963 RMK A01 T00940033  RH  066%=      5-min Rain = 0
KDO1 220826Z 18009KT 09/03 A2963 RMK A01 T00940033  RH  066%=      5-min Rain = 0
KDO1 220827Z 18009KT 09/03 A2963 RMK A01 T00930033  RH  066%=      5-min Rain = 0
KDO1 220828Z 18010KT 09/03 A2963 RMK A01 T00930034  RH  067%=      5-min Rain = 0
KDO1 220829Z 18010KT 09/03 A2963 RMK A01 T00930034  RH  067%=      5-min Rain = 0
KDO1 220830Z 18010KT 09/03 A2963 RMK A01 T00930034  RH  067%=      5-min Rain = 0
KDO1 220831Z 17010KT 09/03 A2963 RMK A01 T00930034  RH  067%=      5-min Rain = 0
KDO1 220832Z 18009KT 09/04 A2963 RMK A01 T00930035  RH  067%=      5-min Rain = 0
KDO1 220833Z 18009KT 09/04 A2963 RMK A01 T00930035  RH  067%=      5-min Rain = 0
KDO1 220834Z 18009KT 09/04 A2963 RMK A01 T00930035  RH  067%=      5-min Rain = 0
KDO1 220835Z 18009KT 09/04 A2963 RMK A01 T00930035  RH  067%=      5-min Rain = 0
KDO1 220836Z 18009KT 09/04 A2963 RMK A01 T00920035  RH  067%=      5-min Rain = 0
KDO1 220837Z 18009KT 09/04 A2963 RMK A01 T00920035  RH  067%=      5-min Rain = 0
KDO1 220838Z 18009KT 09/04 A2963 RMK A01 T00920035  RH  068%=      5-min Rain = 0
KDO1 220839Z 18008KT 09/04 A2963 RMK A01 T00920036  RH  068%=      5-min Rain = 0
KDO1 220840Z 18008KT 09/04 A2963 RMK A01 T00920035  RH  068%=      5-min Rain = 0
KDO1 220841Z 18008KT 09/04 A2963 RMK A01 T00920035  RH  068%=      5-min Rain = 0
KDO1 220842Z 19008KT 09/04 A2963 RMK A01 T00910035  RH  068%=      5-min Rain = 0
KDO1 220843Z 19008KT 09/03 A2963 RMK A01 T00900034  RH  068%=      5-min Rain = 0
KDO1 220844Z 19008KT 09/03 A2963 RMK A01 T00890034  RH  069%=      5-min Rain = 0
KDO1 220845Z 19008KT 09/03 A2963 RMK A01 T00880034  RH  069%=      5-min Rain = 0
KDO1 220846Z 20007KT 09/04 A2963 RMK A01 T00880035  RH  069%=      5-min Rain = 0
KDO1 220847Z 21007KT 09/04 A2963 RMK A01 T00870035  RH  069%=      5-min Rain = 0
KDO1 220848Z 23007KT 09/04 A2964 RMK A01 T00890036  RH  069%=      5-min Rain = 0
KDO1 220849Z 25009KT 09/04 A2965 RMK A01 T00890035  RH  069%=      5-min Rain = 0
KDO1 220850Z 26008KT 09/04 A2966 RMK A01 T00890035  RH  069%=      5-min Rain = 0
KDO1 220851Z 25007KT 09/03 A2965 RMK A01 T00880034  RH  069%=      5-min Rain = 0
KDO1 220852Z 22008KT 09/03 A2964 RMK A01 T00880034  RH  069%=      5-min Rain = 0
KDO1 220853Z 21009KT 09/03 A2964 RMK A01 T00880034  RH  069%=      5-min Rain = 0
KDO1 220854Z 22009KT 09/03 A2964 RMK A01 T00890034  RH  068%=      5-min Rain = 0
KDO1 220855Z 24009KT 09/03 A2965 RMK A01 T00890034  RH  068%=      5-min Rain = 0
KDO1 220856Z 26009KT 09/03 A2965 RMK A01 T00880033  RH  069%=      5-min Rain = 0
KDO1 220857Z 27009KT 09/03 A2966 RMK A01 T00870033  RH  069%=      5-min Rain = 0
KDO1 220858Z 26008KT 09/03 A2966 RMK A01 T00860034  RH  069%=      5-min Rain = 0
KDO1 220859Z 24007KT 09/03 A2966 RMK A01 T00860034  RH  070%=      5-min Rain = 0
KDO1 220900Z 21008KT 09/03 A2964 RMK A01 T00870034  RH  069%=      5-min Rain = 0
KDO1 220901Z 19009KT 09/03 A2963 RMK A01 T00880034  RH  069%=      5-min Rain = 0
KDO1 220902Z 18009KT 09/03 A2963 RMK A01 T00870033  RH  069%=      5-min Rain = 0
KDO1 220903Z 19009KT 09/03 A2963 RMK A01 T00850032  RH  069%=      5-min Rain = 0
KDO1 220904Z 21008KT 09/03 A2964 RMK A01 T00850033  RH  070%=      5-min Rain = 0
KDO1 220905Z 23007KT 08/03 A2965 RMK A01 T00840032  RH  070%=      5-min Rain = 0
KDO1 220906Z 24006KT 08/03 A2965 RMK A01 T00830031  RH  070%=      5-min Rain = 0
KDO1 220907Z 22006KT 08/03 A2965 RMK A01 T00810030  RH  070%=      5-min Rain = 0
KDO1 220908Z 20006KT 08/03 A2964 RMK A01 T00790030  RH  071%=      5-min Rain = 0
KDO1 220909Z 20007KT 08/03 A2964 RMK A01 T00780030  RH  071%=      5-min Rain = 0
KDO1 220910Z 24007KT 08/03 A2965 RMK A01 T00770029  RH  072%=      5-min Rain = 0
KDO1 220911Z 25007KT 08/03 A2966 RMK A01 T00760029  RH  072%=      5-min Rain = 0
KDO1 220912Z 24007KT 07/03 A2966 RMK A01 T00740028  RH  072%=      5-min Rain = 0
KDO1 220913Z 21007KT 07/03 A2965 RMK A01 T00730028  RH  073%=      5-min Rain = 0
KDO1 220914Z 20007KT 07/03 A2964 RMK A01 T00730027  RH  073%=      5-min Rain = 0
KDO1 220915Z 21007KT 07/03 A2965 RMK A01 T00710027  RH  073%=      5-min Rain = 0
KDO1 220916Z 24007KT 07/03 A2966 RMK A01 T00710027  RH  074%=      5-min Rain = 0
KDO1 220917Z 26007KT 07/03 A2966 RMK A01 T00700027  RH  074%=      5-min Rain = 0
KDO1 220918Z 26007KT 07/03 A2966 RMK A01 T00700027  RH  074%=      5-min Rain = 0
KDO1 220919Z 23007KT 07/03 A2965 RMK A01 T00690028  RH  075%=      5-min Rain = 0
KDO1 220920Z 22007KT 07/03 A2965 RMK A01 T00700029  RH  075%=      5-min Rain = 0
KDO1 220921Z 23007KT 07/03 A2965 RMK A01 T00710028  RH  074%=      5-min Rain = 0
KDO1 220922Z 23006KT 07/03 A2966 RMK A01 T00710028  RH  074%=      5-min Rain = 0
KDO1 220923Z 22007KT 07/03 A2966 RMK A01 T00710028  RH  074%=      5-min Rain = 0
KDO1 220924Z 19008KT 07/03 A2965 RMK A01 T00710028  RH  074%=      5-min Rain = 0
KDO1 220925Z 18010KT 07/03 A2965 RMK A01 T00680025  RH  074%=      5-min Rain = 0
KDO1 220926Z 18010KT 07/03 A2965 RMK A01 T00660025  RH  075%=      5-min Rain = 0
KDO1 220927Z 18009KT 07/03 A2965 RMK A01 T00650026  RH  076%=      5-min Rain = 0
KDO1 220928Z 18007KT 07/03 A2964 RMK A01 T00660026  RH  076%=      5-min Rain = 0
KDO1 220929Z 18007KT 07/03 A2965 RMK A01 T00660026  RH  076%=      5-min Rain = 0
KDO1 220930Z 18006KT 07/03 A2965 RMK A01 T00670027  RH  076%=      5-min Rain = 0
KDO1 220931Z 18007KT 07/03 A2965 RMK A01 T00670027  RH  076%=      5-min Rain = 0
KDO1 220932Z 18007KT 07/03 A2965 RMK A01 T00680028  RH  076%=      5-min Rain = 0
KDO1 220933Z 18008KT 07/03 A2965 RMK A01 T00690029  RH  076%=      5-min Rain = 0
KDO1 220934Z 18008KT 07/03 A2965 RMK A01 T00700030  RH  076%=      5-min Rain = 0
KDO1 220935Z 18008KT 07/03 A2965 RMK A01 T00710030  RH  075%=      5-min Rain = 0
KDO1 220936Z 19008KT 07/03 A2965 RMK A01 T00720031  RH  075%=      5-min Rain = 0
KDO1 220937Z 19008KT 07/03 A2965 RMK A01 T00730031  RH  075%=      5-min Rain = 0
KDO1 220938Z 19008KT 07/03 A2965 RMK A01 T00730030  RH  074%=      5-min Rain = 0
KDO1 220939Z 19008KT 07/03 A2964 RMK A01 T00730030  RH  074%=      5-min Rain = 0
KDO1 220940Z 19008KT 07/03 A2964 RMK A01 T00730030  RH  074%=      5-min Rain = 0
KDO1 220941Z 19008KT 07/03 A2964 RMK A01 T00730030  RH  074%=      5-min Rain = 0
KDO1 220942Z 18008KT 07/03 A2964 RMK A01 T00730029  RH  074%=      5-min Rain = 0
KDO1 220943Z 18008KT 07/03 A2964 RMK A01 T00720029  RH  074%=      5-min Rain = 0
KDO1 220944Z 18009KT 07/03 A2964 RMK A01 T00710028  RH  074%=      5-min Rain = 0
KDO1 220945Z 18008KT 07/03 A2965 RMK A01 T00700027  RH  074%=      5-min Rain = 0
KDO1 220946Z 18008KT 07/03 A2964 RMK A01 T00680027  RH  075%=      5-min Rain = 0
KDO1 220947Z 18008KT 07/03 A2964 RMK A01 T00670027  RH  076%=      5-min Rain = 0
KDO1 220948Z 18008KT 07/03 A2965 RMK A01 T00650027  RH  076%=      5-min Rain = 0
KDO1 220949Z 18007KT 06/03 A2965 RMK A01 T00640027  RH  077%=      5-min Rain = 0
KDO1 220950Z 18007KT 06/03 A2964 RMK A01 T00640027  RH  077%=      5-min Rain = 0
KDO1 220951Z 18007KT 06/03 A2964 RMK A01 T00630027  RH  078%=      5-min Rain = 0
KDO1 220952Z 17007KT 06/03 A2964 RMK A01 T00620027  RH  078%=      5-min Rain = 0
KDO1 220953Z 18007KT 06/03 A2964 RMK A01 T00620027  RH  078%=      5-min Rain = 0
KDO1 220954Z 18007KT 06/03 A2964 RMK A01 T00620028  RH  079%=      5-min Rain = 0
KDO1 220955Z 18007KT 06/03 A2965 RMK A01 T00620028  RH  079%=      5-min Rain = 0
KDO1 220956Z 18007KT 06/03 A2965 RMK A01 T00620027  RH  079%=      5-min Rain = 0
KDO1 220957Z 18006KT 06/03 A2964 RMK A01 T00620028  RH  079%=      5-min Rain = 0
KDO1 220958Z 18007KT 06/03 A2964 RMK A01 T00620027  RH  079%=      5-min Rain = 0
KDO1 220959Z 17007KT 06/03 A2964 RMK A01 T00620028  RH  079%=      5-min Rain = 0
KDO1 221000Z 18006KT 06/03 A2964 RMK A01 T00620028  RH  079%=      5-min Rain = 0
KDO1 221001Z 17006KT 06/03 A2964 RMK A01 T00620028  RH  079%=      5-min Rain = 0
KDO1 221002Z 17007KT 06/03 A2964 RMK A01 T00620029  RH  079%=      5-min Rain = 0
KDO1 221003Z 17006KT 06/03 A2964 RMK A01 T00620029  RH  079%=      5-min Rain = 0
KDO1 221004Z 17007KT 06/03 A2964 RMK A01 T00620029  RH  080%=      5-min Rain = 0
KDO1 221005Z 17007KT 06/03 A2965 RMK A01 T00620029  RH  080%=      5-min Rain = 0
KDO1 221006Z 17006KT 06/03 A2965 RMK A01 T00620030  RH  080%=      5-min Rain = 0
KDO1 221007Z 18006KT 06/03 A2965 RMK A01 T00620030  RH  080%=      5-min Rain = 0
KDO1 221008Z 18006KT 06/03 A2965 RMK A01 T00630030  RH  080%=      5-min Rain = 0
KDO1 221009Z 18006KT 06/03 A2965 RMK A01 T00630030  RH  080%=      5-min Rain = 0
KDO1 221010Z 18006KT 06/03 A2964 RMK A01 T00630030  RH  080%=      5-min Rain = 0
KDO1 221011Z 18005KT 06/03 A2964 RMK A01 T00620030  RH  080%=      5-min Rain = 0
KDO1 221012Z 18004KT 06/03 A2964 RMK A01 T00620030  RH  080%=      5-min Rain = 0
KDO1 221013Z 18004KT 06/03 A2965 RMK A01 T00610029  RH  080%=      5-min Rain = 0
KDO1 221014Z 19003KT 06/03 A2965 RMK A01 T00610028  RH  080%=      5-min Rain = 0
KDO1 221015Z 19001KT 06/03 A2965 RMK A01 T00590025  RH  079%=      5-min Rain = 0
KDO1 221016Z 18003KT 06/02 A2965 RMK A01 T00570024  RH  079%=      5-min Rain = 0
KDO1 221017Z 18003KT 06/02 A2965 RMK A01 T00550024  RH  081%=      5-min Rain = 0
KDO1 221018Z 17003KT 05/03 A2965 RMK A01 T00540025  RH  082%=      5-min Rain = 0
KDO1 221019Z 18003KT 05/03 A2965 RMK A01 T00540027  RH  082%=      5-min Rain = 0
KDO1 221020Z 18003KT 06/03 A2965 RMK A01 T00550028  RH  083%=      5-min Rain = 0
KDO1 221021Z 17004KT 06/03 A2965 RMK A01 T00560029  RH  083%=      5-min Rain = 0
KDO1 221022Z 18003KT 06/03 A2965 RMK A01 T00570030  RH  083%=      5-min Rain = 0
KDO1 221023Z 18003KT 06/03 A2965 RMK A01 T00570030  RH  083%=      5-min Rain = 0
KDO1 221024Z 18003KT 06/03 A2965 RMK A01 T00580031  RH  083%=      5-min Rain = 0
KDO1 221025Z 18003KT 06/03 A2965 RMK A01 T00590031  RH  082%=      5-min Rain = 0
KDO1 221026Z 18004KT 06/03 A2965 RMK A01 T00590032  RH  082%=      5-min Rain = 0
KDO1 221027Z 18003KT 06/03 A2965 RMK A01 T00610033  RH  082%=      5-min Rain = 0
KDO1 221028Z 18004KT 06/03 A2965 RMK A01 T00620033  RH  082%=      5-min Rain = 0
KDO1 221029Z 18003KT 06/03 A2965 RMK A01 T00630033  RH  081%=      5-min Rain = 0
KDO1 221030Z 18003KT 06/03 A2965 RMK A01 T00630033  RH  081%=      5-min Rain = 0
KDO1 221031Z 18003KT 06/03 A2965 RMK A01 T00640033  RH  081%=      5-min Rain = 0
KDO1 221032Z 19003KT 06/03 A2965 RMK A01 T00640033  RH  081%=      5-min Rain = 0
KDO1 221033Z 19003KT 06/03 A2965 RMK A01 T00640033  RH  081%=      5-min Rain = 0
KDO1 221034Z 19003KT 06/03 A2965 RMK A01 T00640033  RH  081%=      5-min Rain = 0
KDO1 221035Z 19003KT 06/03 A2965 RMK A01 T00640033  RH  081%=      5-min Rain = 0
KDO1 221036Z 19003KT 06/03 A2965 RMK A01 T00640033  RH  081%=      5-min Rain = 0
KDO1 221037Z 20003KT 06/03 A2965 RMK A01 T00640033  RH  081%=      5-min Rain = 0
KDO1 221038Z 20003KT 06/03 A2965 RMK A01 T00630033  RH  081%=      5-min Rain = 0
KDO1 221039Z 21003KT 06/03 A2965 RMK A01 T00630033  RH  081%=      5-min Rain = 0
KDO1 221040Z 22003KT 06/03 A2966 RMK A01 T00630033  RH  081%=      5-min Rain = 0
KDO1 221041Z 23004KT 06/03 A2966 RMK A01 T00620033  RH  081%=      5-min Rain = 0
KDO1 221042Z 23004KT 06/03 A2966 RMK A01 T00620032  RH  081%=      5-min Rain = 0
KDO1 221043Z 23004KT 06/03 A2966 RMK A01 T00610031  RH  081%=      5-min Rain = 0
KDO1 221044Z 23004KT 06/03 A2966 RMK A01 T00610032  RH  082%=      5-min Rain = 0
KDO1 221045Z 23005KT 06/03 A2966 RMK A01 T00610032  RH  082%=      5-min Rain = 0
KDO1 221046Z 23005KT 06/03 A2966 RMK A01 T00610032  RH  082%=      5-min Rain = 0
KDO1 221047Z 23005KT 06/03 A2966 RMK A01 T00610031  RH  081%=      5-min Rain = 0
KDO1 221048Z 22005KT 06/03 A2966 RMK A01 T00610031  RH  081%=      5-min Rain = 0
KDO1 221049Z 22005KT 06/03 A2966 RMK A01 T00600031  RH  082%=      5-min Rain = 0
KDO1 221050Z 22005KT 06/03 A2966 RMK A01 T00600032  RH  082%=      5-min Rain = 0
KDO1 221051Z 23005KT 06/03 A2966 RMK A01 T00610033  RH  082%=      5-min Rain = 0
KDO1 221052Z 23004KT 06/03 A2966 RMK A01 T00610033  RH  082%=      5-min Rain = 0
KDO1 221053Z 23004KT 06/03 A2966 RMK A01 T00610032  RH  081%=      5-min Rain = 0
KDO1 221054Z 23004KT 06/03 A2966 RMK A01 T00610032  RH  081%=      5-min Rain = 0
KDO1 221055Z 23004KT 06/03 A2966 RMK A01 T00610032  RH  082%=      5-min Rain = 0
KDO1 221056Z 22004KT 06/03 A2966 RMK A01 T00610032  RH  082%=      5-min Rain = 0
KDO1 221057Z 22004KT 06/03 A2966 RMK A01 T00610032  RH  082%=      5-min Rain = 0
KDO1 221058Z 22004KT 06/03 A2966 RMK A01 T00610032  RH  082%=      5-min Rain = 0
KDO1 221059Z 22004KT 06/03 A2966 RMK A01 T00610032  RH  082%=      5-min Rain = 0
KDO1 221100Z 22005KT 06/03 A2966 RMK A01 T00610032  RH  082%=      5-min Rain = 0
KDO1 221101Z 22005KT 06/03 A2966 RMK A01 T00610032  RH  082%=      5-min Rain = 0
KDO1 221102Z 22005KT 06/03 A2966 RMK A01 T00600032  RH  082%=      5-min Rain = 0
KDO1 221103Z 22005KT 06/03 A2966 RMK A01 T00600033  RH  082%=      5-min Rain = 0
KDO1 221104Z 22004KT 06/03 A2966 RMK A01 T00600032  RH  082%=      5-min Rain = 0
KDO1 221105Z 22004KT 06/03 A2966 RMK A01 T00600033  RH  083%=      5-min Rain = 0
KDO1 221106Z 22004KT 06/03 A2966 RMK A01 T00590032  RH  083%=      5-min Rain = 0
KDO1 221107Z 22005KT 06/03 A2966 RMK A01 T00590032  RH  083%=      5-min Rain = 0
KDO1 221108Z 22004KT 06/03 A2966 RMK A01 T00590032  RH  083%=      5-min Rain = 0
KDO1 221109Z 23004KT 06/03 A2966 RMK A01 T00580032  RH  083%=      5-min Rain = 0
KDO1 221110Z 23004KT 06/03 A2966 RMK A01 T00580032  RH  083%=      5-min Rain = 0
KDO1 221111Z 23004KT 06/03 A2966 RMK A01 T00580032  RH  084%=      5-min Rain = 0
KDO1 221112Z 23004KT 06/03 A2966 RMK A01 T00580033  RH  084%=      5-min Rain = 0
KDO1 221113Z 23003KT 06/03 A2966 RMK A01 T00580033  RH  084%=      5-min Rain = 0
KDO1 221114Z 23003KT 06/03 A2966 RMK A01 T00590033  RH  084%=      5-min Rain = 0
KDO1 221115Z 22003KT 06/03 A2966 RMK A01 T00580033  RH  084%=      5-min Rain = 0
KDO1 221116Z 22003KT 06/03 A2966 RMK A01 T00580033  RH  084%=      5-min Rain = 0
KDO1 221117Z 23002KT 06/03 A2966 RMK A01 T00590033  RH  084%=      5-min Rain = 0
KDO1 221118Z 23002KT 06/03 A2966 RMK A01 T00590033  RH  084%=      5-min Rain = 0
KDO1 221119Z 23003KT 06/03 A2966 RMK A01 T00580033  RH  084%=      5-min Rain = 0
KDO1 221120Z 23003KT 06/03 A2967 RMK A01 T00590033  RH  084%=      5-min Rain = 0
KDO1 221121Z 24003KT 06/03 A2966 RMK A01 T00590034  RH  084%=      5-min Rain = 0
KDO1 221122Z 24003KT 06/03 A2966 RMK A01 T00580033  RH  084%=      5-min Rain = 0
KDO1 221123Z 25003KT 06/03 A2966 RMK A01 T00580033  RH  084%=      5-min Rain = 0
KDO1 221124Z 25003KT 06/03 A2966 RMK A01 T00580034  RH  084%=      5-min Rain = 0
KDO1 221125Z 25003KT 06/03 A2966 RMK A01 T00570034  RH  085%=      5-min Rain = 0
KDO1 221126Z 25003KT 06/03 A2967 RMK A01 T00580034  RH  085%=      5-min Rain = 0
KDO1 221127Z 26003KT 06/03 A2967 RMK A01 T00580034  RH  085%=      5-min Rain = 0
KDO1 221128Z 26003KT 06/03 A2967 RMK A01 T00580034  RH  085%=      5-min Rain = 0
KDO1 221129Z 27003KT 06/03 A2967 RMK A01 T00580034  RH  084%=      5-min Rain = 0
KDO1 221130Z 27003KT 06/03 A2967 RMK A01 T00580033  RH  084%=      5-min Rain = 0
KDO1 221131Z 25004KT 06/03 A2967 RMK A01 T00590033  RH  084%=      5-min Rain = 0
KDO1 221132Z 25004KT 06/03 A2967 RMK A01 T00580032  RH  083%=      5-min Rain = 0
KDO1 221133Z 25004KT 06/03 A2967 RMK A01 T00580032  RH  083%=      5-min Rain = 0
KDO1 221134Z 25004KT 06/03 A2967 RMK A01 T00590033  RH  083%=      5-min Rain = 0
KDO1 221135Z 26003KT 06/03 A2967 RMK A01 T00590032  RH  083%=      5-min Rain = 0
KDO1 221136Z 26003KT 06/03 A2967 RMK A01 T00600032  RH  083%=      5-min Rain = 0
KDO1 221137Z 26004KT 06/03 A2967 RMK A01 T00600032  RH  083%=      5-min Rain = 0
KDO1 221138Z 26005KT 06/03 A2967 RMK A01 T00600033  RH  083%=      5-min Rain = 0
KDO1 221139Z 26005KT 06/03 A2967 RMK A01 T00610033  RH  082%=      5-min Rain = 0
KDO1 221140Z 26004KT 06/03 A2967 RMK A01 T00620033  RH  082%=      5-min Rain = 0
KDO1 221141Z 27004KT 06/03 A2967 RMK A01 T00620032  RH  081%=      5-min Rain = 0
KDO1 221142Z 29005KT 06/03 A2967 RMK A01 T00620032  RH  081%=      5-min Rain = 0
KDO1 221143Z 30005KT 06/03 A2967 RMK A01 T00620031  RH  081%=      5-min Rain = 0
KDO1 221144Z 29005KT 06/03 A2967 RMK A01 T00620031  RH  080%=      5-min Rain = 0
KDO1 221145Z 29006KT 06/03 A2967 RMK A01 T00630031  RH  080%=      5-min Rain = 0
KDO1 221146Z 29007KT 06/03 A2967 RMK A01 T00640031  RH  080%=      5-min Rain = 0
KDO1 221147Z 27007KT 07/03 A2967 RMK A01 T00660032  RH  079%=      5-min Rain = 0
KDO1 221148Z 27007KT 07/03 A2966 RMK A01 T00680033  RH  078%=      5-min Rain = 0
KDO1 221149Z 27007KT 07/03 A2966 RMK A01 T00710033  RH  077%=      5-min Rain = 0
KDO1 221150Z 29006KT 07/03 A2966 RMK A01 T00710032  RH  076%=      5-min Rain = 0
KDO1 221151Z 29006KT 07/03 A2966 RMK A01 T00710031  RH  076%=      5-min Rain = 0
KDO1 221152Z 28005KT 07/03 A2966 RMK A01 T00710031  RH  076%=      5-min Rain = 0
KDO1 221153Z 28004KT 07/03 A2966 RMK A01 T00720031  RH  075%=      5-min Rain = 0
KDO1 221154Z 27004KT 07/03 A2966 RMK A01 T00720031  RH  075%=      5-min Rain = 0
KDO1 221155Z 26005KT 07/03 A2966 RMK A01 T00720030  RH  075%=      5-min Rain = 0
KDO1 221156Z 26004KT 07/03 A2966 RMK A01 T00720030  RH  075%=      5-min Rain = 0
KDO1 221157Z 27003KT 07/03 A2966 RMK A01 T00720030  RH  075%=      5-min Rain = 0
KDO1 221158Z 29003KT 07/03 A2966 RMK A01 T00710029  RH  075%=      5-min Rain = 0
KDO1 221159Z 30003KT 07/02 A2966 RMK A01 T00680023  RH  073%=      5-min Rain = 0
KDO1 221200Z 30003KT 06/02 A2966 RMK A01 T00610017  RH  073%=      5-min Rain = 0
KDO1 221201Z 29003KT 05/01 A2966 RMK A01 T00540014  RH  076%=      5-min Rain = 0
KDO1 221202Z 28003KT 05/02 A2966 RMK A01 T00480015  RH  079%=      5-min Rain = 0
KDO1 221203Z 27003KT 05/02 A2966 RMK A01 T00460017  RH  082%=      5-min Rain = 0
KDO1 221204Z 26004KT 05/02 A2967 RMK A01 T00450019  RH  083%=      5-min Rain = 0
KDO1 221205Z 26004KT 05/02 A2967 RMK A01 T00450021  RH  084%=      5-min Rain = 0
KDO1 221206Z 27004KT 05/02 A2966 RMK A01 T00470023  RH  084%=      5-min Rain = 0
KDO1 221207Z 28003KT 05/02 A2966 RMK A01 T00480023  RH  084%=      5-min Rain = 0
KDO1 221208Z 32003KT 05/02 A2966 RMK A01 T00500023  RH  083%=      5-min Rain = 0
KDO1 221209Z 34004KT 05/02 A2966 RMK A01 T00500022  RH  082%=      5-min Rain = 0
KDO1 221210Z 32004KT 05/02 A2966 RMK A01 T00500023  RH  083%=      5-min Rain = 0
KDO1 221211Z 31003KT 05/02 A2966 RMK A01 T00510023  RH  083%=      5-min Rain = 0
KDO1 221212Z 29002KT 05/02 A2966 RMK A01 T00500023  RH  083%=      5-min Rain = 0
KDO1 221213Z 25003KT 05/02 A2966 RMK A01 T00490023  RH  083%=      5-min Rain = 0
KDO1 221214Z 25003KT 05/02 A2966 RMK A01 T00500024  RH  083%=      5-min Rain = 0
KDO1 221215Z 25003KT 05/02 A2966 RMK A01 T00500023  RH  083%=      5-min Rain = 0
KDO1 221216Z 26003KT 05/02 A2965 RMK A01 T00500022  RH  082%=      5-min Rain = 0
KDO1 221217Z 27004KT 05/02 A2965 RMK A01 T00490022  RH  083%=      5-min Rain = 0
KDO1 221218Z 27003KT 05/02 A2965 RMK A01 T00480022  RH  083%=      5-min Rain = 0
KDO1 221219Z 28004KT 05/02 A2965 RMK A01 T00480023  RH  084%=      5-min Rain = 0
KDO1 221220Z 29004KT 05/02 A2965 RMK A01 T00480023  RH  084%=      5-min Rain = 0
KDO1 221221Z 29004KT 05/02 A2965 RMK A01 T00490023  RH  083%=      5-min Rain = 0
KDO1 221222Z 28004KT 05/02 A2965 RMK A01 T00500023  RH  083%=      5-min Rain = 0
KDO1 221223Z 28003KT 05/02 A2966 RMK A01 T00500023  RH  083%=      5-min Rain = 0
KDO1 221224Z 27002KT 05/02 A2965 RMK A01 T00510023  RH  082%=      5-min Rain = 0
KDO1 221225Z 26002KT 05/02 A2965 RMK A01 T00520023  RH  082%=      5-min Rain = 0
KDO1 221226Z 26001KT 05/02 A2965 RMK A01 T00520024  RH  082%=      5-min Rain = 0
KDO1 221227Z 23001KT 05/03 A2965 RMK A01 T00530025  RH  082%=      5-min Rain = 0
KDO1 221228Z 20001KT 06/03 A2965 RMK A01 T00550026  RH  082%=      5-min Rain = 0
KDO1 221229Z 19002KT 06/03 A2966 RMK A01 T00570026  RH  081%=      5-min Rain = 0
KDO1 221230Z 18002KT 06/03 A2965 RMK A01 T00570025  RH  080%=      5-min Rain = 0
KDO1 221231Z 19003KT 06/02 A2965 RMK A01 T00560024  RH  080%=      5-min Rain = 0
KDO1 221232Z 20003KT 05/02 A2965 RMK A01 T00540022  RH  079%=      5-min Rain = 0
KDO1 221233Z 20003KT 05/02 A2965 RMK A01 T00520020  RH  080%=      5-min Rain = 0
KDO1 221234Z 21003KT 05/02 A2965 RMK A01 T00510020  RH  080%=      5-min Rain = 0
KDO1 221235Z 20003KT 05/02 A2966 RMK A01 T00490020  RH  081%=      5-min Rain = 0
KDO1 221236Z 20003KT 05/02 A2966 RMK A01 T00470020  RH  082%=      5-min Rain = 0
KDO1 221237Z 20004KT 05/02 A2966 RMK A01 T00460020  RH  083%=      5-min Rain = 0
KDO1 221238Z 21004KT 05/02 A2966 RMK A01 T00460020  RH  084%=      5-min Rain = 0
KDO1 221239Z 21004KT 05/02 A2966 RMK A01 T00460020  RH  084%=      5-min Rain = 0
KDO1 221240Z 22004KT 05/02 A2965 RMK A01 T00460020  RH  083%=      5-min Rain = 0
KDO1 221241Z 22003KT 05/02 A2965 RMK A01 T00450019  RH  083%=      5-min Rain = 0
KDO1 221242Z 23004KT 04/02 A2965 RMK A01 T00440019  RH  083%=      5-min Rain = 0
KDO1 221243Z 23003KT 04/02 A2966 RMK A01 T00440019  RH  084%=      5-min Rain = 0
KDO1 221244Z 24003KT 04/02 A2966 RMK A01 T00440020  RH  085%=      5-min Rain = 0
KDO1 221245Z 26003KT 05/02 A2966 RMK A01 T00450021  RH  084%=      5-min Rain = 0
KDO1 221246Z 27003KT 05/02 A2966 RMK A01 T00450019  RH  083%=      5-min Rain = 0
KDO1 221247Z 28003KT 04/02 A2966 RMK A01 T00430017  RH  083%=      5-min Rain = 0
KDO1 221248Z 27003KT 04/02 A2966 RMK A01 T00420018  RH  084%=      5-min Rain = 0
KDO1 221249Z 29003KT 04/02 A2966 RMK A01 T00420018  RH  084%=      5-min Rain = 0
KDO1 221250Z 32005KT 04/02 A2966 RMK A01 T00410017  RH  084%=      5-min Rain = 0
KDO1 221251Z 30004KT 04/02 A2966 RMK A01 T00400018  RH  085%=      5-min Rain = 0
KDO1 221252Z 29004KT 04/02 A2966 RMK A01 T00410018  RH  085%=      5-min Rain = 0
KDO1 221253Z 27004KT 04/02 A2967 RMK A01 T00410018  RH  085%=      5-min Rain = 0
KDO1 221254Z 28004KT 04/02 A2967 RMK A01 T00420019  RH  085%=      5-min Rain = 0
KDO1 221255Z 30004KT 04/02 A2967 RMK A01 T00420019  RH  085%=      5-min Rain = 0
KDO1 221256Z 30004KT 04/02 A2967 RMK A01 T00420019  RH  085%=      5-min Rain = 0
KDO1 221257Z 31004KT 04/02 A2968 RMK A01 T00420019  RH  085%=      5-min Rain = 0
KDO1 221258Z 31005KT 04/02 A2968 RMK A01 T00420019  RH  085%=      5-min Rain = 0
KDO1 221259Z 31005KT 04/02 A2968 RMK A01 T00410018  RH  085%=      5-min Rain = 0
KDO1 221300Z 31004KT 04/02 A2968 RMK A01 T00410020  RH  086%=      5-min Rain = 0
KDO1 221301Z 32004KT 04/02 A2968 RMK A01 T00440022  RH  086%=      5-min Rain = 0
KDO1 221302Z 34005KT 04/02 A2968 RMK A01 T00440020  RH  084%=      5-min Rain = 0
KDO1 221303Z 32005KT 04/02 A2969 RMK A01 T00430020  RH  084%=      5-min Rain = 0
KDO1 221304Z 35004KT 04/02 A2969 RMK A01 T00430020  RH  085%=      5-min Rain = 0
KDO1 221305Z 32004KT 04/02 A2969 RMK A01 T00440022  RH  086%=      5-min Rain = 0
KDO1 221306Z 33005KT 05/02 A2969 RMK A01 T00480023  RH  084%=      5-min Rain = 0
KDO1 221307Z 34004KT 05/02 A297 RMK A01 T00510021  RH  081%=      5-min Rain = 0
KDO1 221308Z 33005KT 05/02 A297 RMK A01 T00520020  RH  080%=      5-min Rain = 0
KDO1 221309Z 34004KT 05/02 A297 RMK A01 T00540021  RH  079%=      5-min Rain = 0
KDO1 221310Z 35003KT 06/02 A297 RMK A01 T00550021  RH  079%=      5-min Rain = 0
KDO1 221311Z 35005KT 06/02 A297 RMK A01 T00550020  RH  078%=      5-min Rain = 0
KDO1 221312Z 01005KT 06/01 A297 RMK A01 T00560014  RH  075%=      5-min Rain = 0
KDO1 221313Z 02006G11KT 06/02 A2971 RMK A01 T00580015  RH  074%=      5-min Rain = 0
KDO1 221314Z 02006G11KT 06/01 A2971 RMK A01 T00580014  RH  073%=      5-min Rain = 0
KDO1 221315Z 03006KT 05/01 A2971 RMK A01 T00530010  RH  074%=      5-min Rain = 0
KDO1 221316Z 05005KT 05/01 A2971 RMK A01 T00460010  RH  077%=      5-min Rain = 0
KDO1 221317Z 03007KT 04/01 A2971 RMK A01 T00410010  RH  080%=      5-min Rain = 0
KDO1 221318Z 01007KT 04/01 A2972 RMK A01 T00390008  RH  080%=      5-min Rain = 0
KDO1 221319Z 00009KT 04/01 A2972 RMK A01 T00410006  RH  078%=      5-min Rain = 0
KDO1 221320Z 36010KT 05/00 A2972 RMK A01 T00460004  RH  074%=      5-min Rain = 0
KDO1 221321Z 35009KT 05/00 A2972 RMK A01 T00500004  RH  072%=      5-min Rain = 0
KDO1 221322Z 34010KT 05/00 A2972 RMK A01 T00520004  RH  071%=      5-min Rain = 0
KDO1 221323Z 35012KT 05/00 A2972 RMK A01 T00520003  RH  070%=      5-min Rain = 0
KDO1 221324Z 35016KT 05/00 A2972 RMK A01 T00520001  RH  069%=      5-min Rain = 0
KDO1 221325Z 36017G23KT 05/M00 A2972 RMK A01 T00491002  RH  070%=      5-min Rain = 0
KDO1 221326Z 36021KT 05/M00 A2973 RMK A01 T00461004  RH  070%=      5-min Rain = 0
KDO1 221327Z 35017KT 04/M01 A2973 RMK A01 T00441005  RH  071%=      5-min Rain = 0
KDO1 221328Z 35017KT 04/M01 A2973 RMK A01 T00411005  RH  072%=      5-min Rain = 0
KDO1 221329Z 35017G22KT 04/M01 A2973 RMK A01 T00381005  RH  073%=      5-min Rain = 0
KDO1 221330Z 36018KT 04/M01 A2974 RMK A01 T00371006  RH  074%=      5-min Rain = 0
KDO1 221331Z 36015KT 04/M01 A2974 RMK A01 T00361006  RH  074%=      5-min Rain = 0
KDO1 221332Z 36013KT 04/M01 A2974 RMK A01 T00351006  RH  075%=      5-min Rain = 0
KDO1 221333Z 00015G21KT 03/M01 A2974 RMK A01 T00331006  RH  076%=      5-min Rain = 0
KDO1 221334Z 00017KT 03/M01 A2975 RMK A01 T00321007  RH  076%=      5-min Rain = 0
KDO1 221335Z 36016G21KT 03/M01 A2975 RMK A01 T00301007  RH  077%=      5-min Rain = 0
KDO1 221336Z 36014KT 03/M01 A2975 RMK A01 T00291007  RH  077%=      5-min Rain = 0
KDO1 221337Z 36017KT 03/M01 A2975 RMK A01 T00271008  RH  078%=      5-min Rain = 0
KDO1 221338Z 35016KT 03/M01 A2975 RMK A01 T00261009  RH  078%=      5-min Rain = 0
KDO1 221339Z 00018KT 02/M01 A2975 RMK A01 T00231010  RH  079%=      5-min Rain = 0
KDO1 221340Z 00017KT 02/M01 A2975 RMK A01 T00221010  RH  080%=      5-min Rain = 0
KDO1 221341Z 35013G19KT 02/M01 A2975 RMK A01 T00201010  RH  080%=      5-min Rain = 0
KDO1 221342Z 34014G19KT 02/M01 A2975 RMK A01 T00191010  RH  081%=      5-min Rain = 0
KDO1 221343Z 35013KT 02/M01 A2976 RMK A01 T00181010  RH  082%=      5-min Rain = 0
KDO1 221344Z 36014KT 02/M01 A2976 RMK A01 T00171010  RH  083%=      5-min Rain = 0
KDO1 221345Z 34017KT 02/M01 A2976 RMK A01 T00161009  RH  083%=      5-min Rain = 0
KDO1 221346Z 35017KT 02/M01 A2976 RMK A01 T00151008  RH  084%=      5-min Rain = 0
KDO1 221347Z 36016KT 02/M01 A2976 RMK A01 T00151008  RH  085%=      5-min Rain = 0
KDO1 221348Z 36012KT 01/M01 A2977 RMK A01 T00141008  RH  085%=      5-min Rain = 0
KDO1 221349Z 35012KT 01/M01 A2977 RMK A01 T00141007  RH  086%=      5-min Rain = 0
KDO1 221350Z 35009KT 01/M01 A2977 RMK A01 T00141007  RH  086%=      5-min Rain = 0
KDO1 221351Z 35013KT 01/M01 A2977 RMK A01 T00141006  RH  087%=      5-min Rain = 0
KDO1 221352Z 35012KT 01/M01 A2977 RMK A01 T00141005  RH  087%=      5-min Rain = 0
KDO1 221353Z 35012G18KT 01/M01 A2977 RMK A01 T00141005  RH  087%=      5-min Rain = 0
KDO1 221354Z 00015G20KT 02/M00 A2977 RMK A01 T00151004  RH  087%=      5-min Rain = 0
KDO1 221355Z 00012KT 02/M00 A2977 RMK A01 T00151004  RH  087%=      5-min Rain = 0
KDO1 221356Z 35010KT 02/M00 A2977 RMK A01 T00151004  RH  087%=      5-min Rain = 0
KDO1 221357Z 36010KT 02/M00 A2977 RMK A01 T00151004  RH  087%=      5-min Rain = 0
KDO1 221358Z 35008KT 02/M00 A2977 RMK A01 T00151003  RH  087%=      5-min Rain = 0
KDO1 221359Z 35009G15KT 02/M00 A2977 RMK A01 T00151003  RH  087%=      5-min Rain = 0
KDO1 221400Z 35013G18KT 02/M00 A2977 RMK A01 T00161003  RH  088%=      5-min Rain = 0
KDO1 221401Z 35014G19KT 02/M00 A2977 RMK A01 T00161002  RH  088%=      5-min Rain = 0
KDO1 221402Z 34015G22KT 02/M00 A2977 RMK A01 T00171002  RH  088%=      5-min Rain = 0
KDO1 221403Z 36014G20KT 02/M00 A2978 RMK A01 T00171002  RH  087%=      5-min Rain = 0
KDO1 221404Z 35011G17KT 02/M00 A2978 RMK A01 T00171002  RH  087%=      5-min Rain = 0
KDO1 221405Z 35013G19KT 02/M00 A2978 RMK A01 T00171001  RH  087%=      5-min Rain = 0
KDO1 221406Z 35010G15KT 02/M00 A2978 RMK A01 T00171001  RH  087%=      5-min Rain = 0
KDO1 221407Z 34014G21KT 02/M00 A2979 RMK A01 T00171001  RH  087%=      5-min Rain = 0
KDO1 221408Z 34013G19KT 02/M00 A2978 RMK A01 T00171002  RH  087%=      5-min Rain = 0
KDO1 221409Z 36011G17KT 02/M00 A2978 RMK A01 T00171001  RH  087%=      5-min Rain = 0
KDO1 221410Z 36010G15KT 02/M00 A2979 RMK A01 T00171002  RH  087%=      5-min Rain = 0
KDO1 221411Z 34014KT 02/M00 A2979 RMK A01 T00171002  RH  087%=      5-min Rain = 0
KDO1 221412Z 34013G18KT 02/M00 A2979 RMK A01 T00171002  RH  087%=      5-min Rain = 0
KDO1 221413Z 35006KT 02/M00 A2979 RMK A01 T00171002  RH  087%=      5-min Rain = 0
KDO1 221414Z 35007KT 02/M00 A2979 RMK A01 T00171001  RH  088%=      5-min Rain = 0
KDO1 221415Z 01011G18KT 02/M00 A2979 RMK A01 T00181001  RH  087%=      5-min Rain = 0
KDO1 221416Z 36013G19KT 02/M00 A2979 RMK A01 T00181001  RH  087%=      5-min Rain = 0
KDO1 221417Z 00015G20KT 02/M00 A2979 RMK A01 T00181001  RH  087%=      5-min Rain = 0
KDO1 221418Z 36014KT 02/M00 A2979 RMK A01 T00181002  RH  087%=      5-min Rain = 0
KDO1 221419Z 00013KT 02/M00 A2979 RMK A01 T00181002  RH  087%=      5-min Rain = 0
KDO1 221420Z 01010G16KT 02/M00 A2979 RMK A01 T00181002  RH  087%=      5-min Rain = 0
KDO1 221421Z 00011KT 02/M00 A2979 RMK A01 T00181002  RH  087%=      5-min Rain = 0
KDO1 221422Z 01010G17KT 02/M00 A2979 RMK A01 T00181002  RH  087%=      5-min Rain = 0
KDO1 221423Z 00015KT 02/M00 A2979 RMK A01 T00181001  RH  087%=      5-min Rain = 0
KDO1 221424Z 00010KT 02/M00 A2979 RMK A01 T00181002  RH  087%=      5-min Rain = 0
KDO1 221425Z 36013G19KT 02/M00 A2979 RMK A01 T00181001  RH  087%=      5-min Rain = 0
KDO1 221426Z 35011KT 02/M00 A2979 RMK A01 T00181002  RH  087%=      5-min Rain = 0
KDO1 221427Z 00011G17KT 02/M00 A2979 RMK A01 T00191001  RH  087%=      5-min Rain = 0
KDO1 221428Z 36014KT 02/M00 A2979 RMK A01 T00191002  RH  087%=      5-min Rain = 0
KDO1 221429Z 00015KT 02/M00 A2979 RMK A01 T00191001  RH  086%=      5-min Rain = 0
KDO1 221430Z 36015KT 02/M00 A2979 RMK A01 T00181002  RH  086%=      5-min Rain = 0
KDO1 221431Z 36016KT 02/M00 A2979 RMK A01 T00191002  RH  086%=      5-min Rain = 0
KDO1 221432Z 00018G24KT 02/M00 A2979 RMK A01 T00191002  RH  086%=      5-min Rain = 0
KDO1 221433Z 00016G21KT 02/M00 A2979 RMK A01 T00191002  RH  086%=      5-min Rain = 0
KDO1 221434Z 36013G19KT 02/M00 A2979 RMK A01 T00191002  RH  086%=      5-min Rain = 0
KDO1 221435Z 35018G24KT 02/M00 A2979 RMK A01 T00191002  RH  086%=      5-min Rain = 0
KDO1 221436Z 35015KT 02/M00 A2979 RMK A01 T00201002  RH  085%=      5-min Rain = 0
KDO1 221437Z 35014G21KT 02/M00 A2979 RMK A01 T00201002  RH  086%=      5-min Rain = 0
KDO1 221438Z 35016G21KT 02/M00 A298 RMK A01 T00191003  RH  085%=      5-min Rain = 0
KDO1 221439Z 34016G22KT 02/M00 A298 RMK A01 T00201002  RH  085%=      5-min Rain = 0
KDO1 221440Z 34020G26KT 02/M00 A298 RMK A01 T00201003  RH  085%=      5-min Rain = 0
KDO1 221441Z 34018KT 02/M00 A298 RMK A01 T00201003  RH  085%=      5-min Rain = 0
KDO1 221442Z 35019G27KT 02/M00 A298 RMK A01 T00201003  RH  085%=      5-min Rain = 0
KDO1 221443Z 35019G24KT 02/M00 A298 RMK A01 T00191004  RH  085%=      5-min Rain = 0
KDO1 221444Z 34019G26KT 02/M00 A2981 RMK A01 T00201003  RH  085%=      5-min Rain = 0
KDO1 221445Z 35022KT 02/M00 A2981 RMK A01 T00201003  RH  085%=      5-min Rain = 0
KDO1 221446Z 35019KT 02/M00 A2981 RMK A01 T00201004  RH  085%=      5-min Rain = 0
KDO1 221447Z 35020G25KT 02/M00 A2981 RMK A01 T00201004  RH  085%=      5-min Rain = 0
KDO1 221448Z 35020G26KT 02/M00 A298 RMK A01 T00201003  RH  085%=      5-min Rain = 0
KDO1 221449Z 35021KT 02/M00 A298 RMK A01 T00201004  RH  085%=      5-min Rain = 0
KDO1 221450Z 35018G23KT 02/M00 A298 RMK A01 T00201004  RH  084%=      5-min Rain = 0
KDO1 221451Z 35020G26KT 02/M00 A298 RMK A01 T00201003  RH  084%=      5-min Rain = 0
KDO1 221452Z 00017G25KT 02/M00 A298 RMK A01 T00201004  RH  084%=      5-min Rain = 0
KDO1 221453Z 35018G27KT 02/M00 A2981 RMK A01 T00201004  RH  084%=      5-min Rain = 0
KDO1 221454Z 36015G23KT 02/M00 A2981 RMK A01 T00201004  RH  084%=      5-min Rain = 0
KDO1 221455Z 36019KT 02/M00 A2981 RMK A01 T00201004  RH  084%=      5-min Rain = 0
KDO1 221456Z 35016G21KT 02/M00 A2981 RMK A01 T00201004  RH  084%=      5-min Rain = 0
KDO1 221457Z 35013KT 02/M01 A2981 RMK A01 T00201005  RH  084%=      5-min Rain = 0
KDO1 221458Z 36017KT 02/M00 A2981 RMK A01 T00201004  RH  084%=      5-min Rain = 0
KDO1 221459Z 35018KT 02/M01 A2981 RMK A01 T00201005  RH  083%=      5-min Rain = 0
KDO1 221500Z 34017G23KT 02/M01 A2981 RMK A01 T00211005  RH  083%=      5-min Rain = 0
KDO1 221501Z 34014KT 02/M01 A2982 RMK A01 T00211005  RH  083%=      5-min Rain = 0
KDO1 221502Z 34018KT 02/M01 A2982 RMK A01 T00211005  RH  083%=      5-min Rain = 0
KDO1 221503Z 35015G21KT 02/M01 A2982 RMK A01 T00211005  RH  083%=      5-min Rain = 0
KDO1 221504Z 35012G17KT 02/M01 A2982 RMK A01 T00211005  RH  083%=      5-min Rain = 0
KDO1 221505Z 00012G17KT 02/M01 A2982 RMK A01 T00211005  RH  083%=      5-min Rain = 0
KDO1 221506Z 35010KT 02/M01 A2982 RMK A01 T00211005  RH  083%=      5-min Rain = 0
KDO1 221507Z 36011G17KT 02/M01 A2983 RMK A01 T00211005  RH  083%=      5-min Rain = 0
KDO1 221508Z 35012KT 02/M01 A2983 RMK A01 T00201005  RH  083%=      5-min Rain = 0
KDO1 221509Z 00012G17KT 02/M01 A2983 RMK A01 T00201006  RH  083%=      5-min Rain = 0
KDO1 221510Z 36011KT 02/M01 A2983 RMK A01 T00201006  RH  083%=      5-min Rain = 0
KDO1 221511Z 00008KT 02/M01 A2984 RMK A01 T00201006  RH  083%=      5-min Rain = 0
KDO1 221512Z 36010KT 02/M01 A2984 RMK A01 T00191007  RH  083%=      5-min Rain = 0
KDO1 221513Z 36015KT 02/M01 A2983 RMK A01 T00191007  RH  083%=      5-min Rain = 0
KDO1 221514Z 36011G18KT 02/M01 A2983 RMK A01 T00181008  RH  083%=      5-min Rain = 0
KDO1 221515Z 35017G22KT 02/M01 A2983 RMK A01 T00181008  RH  083%=      5-min Rain = 0
KDO1 221516Z 35016G23KT 02/M01 A2983 RMK A01 T00181008  RH  083%=      5-min Rain = 0
KDO1 221517Z 35013G20KT 02/M01 A2983 RMK A01 T00181008  RH  083%=      5-min Rain = 0
KDO1 221518Z 36013G18KT 02/M01 A2983 RMK A01 T00171008  RH  083%=      5-min Rain = 0
KDO1 221519Z 34015G21KT 02/M01 A2983 RMK A01 T00171008  RH  083%=      5-min Rain = 0
KDO1 221520Z 35014KT 02/M01 A2983 RMK A01 T00171008  RH  083%=      5-min Rain = 0
KDO1 221521Z 35017KT 02/M01 A2983 RMK A01 T00171008  RH  083%=      5-min Rain = 0
KDO1 221522Z 35013KT 02/M01 A2983 RMK A01 T00181008  RH  083%=      5-min Rain = 0
KDO1 221523Z 35012G17KT 02/M01 A2983 RMK A01 T00171008  RH  084%=      5-min Rain = 0
KDO1 221524Z 36015KT 02/M01 A2983 RMK A01 T00171008  RH  083%=      5-min Rain = 0
KDO1 221525Z 36020G26KT 02/M01 A2983 RMK A01 T00171009  RH  083%=      5-min Rain = 0
KDO1 221526Z 35019KT 02/M01 A2983 RMK A01 T00171010  RH  082%=      5-min Rain = 0
KDO1 221527Z 36019KT 02/M01 A2983 RMK A01 T00161012  RH  082%=      5-min Rain = 0
KDO1 221528Z 35015KT 02/M01 A2983 RMK A01 T00161012  RH  082%=      5-min Rain = 0
KDO1 221529Z 36017KT 02/M01 A2983 RMK A01 T00161012  RH  082%=      5-min Rain = 0
KDO1 221530Z 01020KT 02/M01 A2983 RMK A01 T00161012  RH  082%=      5-min Rain = 0
KDO1 221531Z 36021G26KT 02/M01 A2983 RMK A01 T00151013  RH  082%=      5-min Rain = 0
KDO1 221532Z 36020G25KT 02/M01 A2983 RMK A01 T00151013  RH  082%=      5-min Rain = 0
KDO1 221533Z 36018KT 02/M01 A2983 RMK A01 T00151013  RH  082%=      5-min Rain = 0
KDO1 221534Z 36014KT 02/M01 A2983 RMK A01 T00151013  RH  082%=      5-min Rain = 0
KDO1 221535Z 36013G18KT 02/M01 A2983 RMK A01 T00151013  RH  082%=      5-min Rain = 0
KDO1 221536Z 35013G19KT 02/M01 A2983 RMK A01 T00151012  RH  082%=      5-min Rain = 0
KDO1 221537Z 35017G22KT 02/M01 A2984 RMK A01 T00161012  RH  082%=      5-min Rain = 0
KDO1 221538Z 34016G22KT 02/M01 A2984 RMK A01 T00161012  RH  081%=      5-min Rain = 0
KDO1 221539Z 35018KT 02/M01 A2984 RMK A01 T00161013  RH  081%=      5-min Rain = 0
KDO1 221540Z 35016KT 02/M01 A2984 RMK A01 T00161013  RH  081%=      5-min Rain = 0
KDO1 221541Z 35012G17KT 02/M01 A2984 RMK A01 T00161013  RH  081%=      5-min Rain = 0
KDO1 221542Z 34012KT 02/M01 A2984 RMK A01 T00161012  RH  082%=      5-min Rain = 0
KDO1 221543Z 35016G22KT 02/M01 A2984 RMK A01 T00161013  RH  081%=      5-min Rain = 0
KDO1 221544Z 35017G24KT 02/M01 A2984 RMK A01 T00161013  RH  081%=      5-min Rain = 0
KDO1 221545Z 35018G23KT 02/M01 A2985 RMK A01 T00161013  RH  081%=      5-min Rain = 0
KDO1 221546Z 34019KT 02/M01 A2985 RMK A01 T00151013  RH  081%=      5-min Rain = 0
KDO1 221547Z 35018G23KT 02/M01 A2985 RMK A01 T00151014  RH  081%=      5-min Rain = 0
KDO1 221548Z 35019KT 02/M01 A2985 RMK A01 T00151014  RH  081%=      5-min Rain = 0
KDO1 221549Z 36016G21KT 02/M01 A2985 RMK A01 T00151014  RH  081%=      5-min Rain = 0
KDO1 221550Z 35017G22KT 02/M01 A2985 RMK A01 T00151013  RH  081%=      5-min Rain = 0
KDO1 221551Z 34018G24KT 02/M01 A2985 RMK A01 T00161013  RH  081%=      5-min Rain = 0
KDO1 221552Z 34016KT 02/M01 A2985 RMK A01 T00161014  RH  081%=      5-min Rain = 0
KDO1 221553Z 34018G24KT 02/M01 A2986 RMK A01 T00151014  RH  081%=      5-min Rain = 0
KDO1 221554Z 34020G28KT 02/M02 A2986 RMK A01 T00151015  RH  080%=      5-min Rain = 0
KDO1 221555Z 35021G27KT 02/M02 A2986 RMK A01 T00151016  RH  080%=      5-min Rain = 0
KDO1 221556Z 35019G24KT 01/M02 A2986 RMK A01 T00141017  RH  080%=      5-min Rain = 0
KDO1 221557Z 34023G28KT 01/M02 A2986 RMK A01 T00141016  RH  080%=      5-min Rain = 0
KDO1 221558Z 34023KT 01/M02 A2986 RMK A01 T00141017  RH  080%=      5-min Rain = 0
KDO1 221559Z 35022KT 01/M02 A2986 RMK A01 T00131018  RH  080%=      5-min Rain = 0
KDO1 221600Z 34024G29KT 01/M02 A2986 RMK A01 T00131018  RH  080%=      5-min Rain = 0
KDO1 221601Z 35022G28KT 01/M02 A2986 RMK A01 T00131019  RH  079%=      5-min Rain = 0
KDO1 221602Z 34018G25KT 01/M02 A2986 RMK A01 T00131020  RH  079%=      5-min Rain = 0
KDO1 221603Z 34019G26KT 01/M02 A2986 RMK A01 T00131019  RH  079%=      5-min Rain = 0
KDO1 221604Z 34023G29KT 01/M02 A2986 RMK A01 T00141020  RH  078%=      5-min Rain = 0
KDO1 221605Z 34022G28KT 01/M02 A2986 RMK A01 T00141020  RH  078%=      5-min Rain = 0
KDO1 221606Z 34015KT 01/M02 A2987 RMK A01 T00131020  RH  078%=      5-min Rain = 0
KDO1 221607Z 35016G23KT 02/M02 A2987 RMK A01 T00151019  RH  079%=      5-min Rain = 0
KDO1 221608Z 35015G20KT 02/M02 A2986 RMK A01 T00161018  RH  078%=      5-min Rain = 0
KDO1 221609Z 35019G25KT 02/M02 A2986 RMK A01 T00171018  RH  078%=      5-min Rain = 0
KDO1 221610Z 35018KT 02/M02 A2987 RMK A01 T00171019  RH  077%=      5-min Rain = 0
KDO1 221611Z 34013G21KT 02/M02 A2987 RMK A01 T00171018  RH  077%=      5-min Rain = 0
KDO1 221612Z 35016G21KT 02/M02 A2987 RMK A01 T00171018  RH  077%=      5-min Rain = 0
KDO1 221613Z 35016G21KT 02/M02 A2987 RMK A01 T00171019  RH  077%=      5-min Rain = 0
KDO1 221614Z 35018G29KT 02/M02 A2987 RMK A01 T00171019  RH  077%=      5-min Rain = 0
KDO1 221615Z 35020G28KT 02/M02 A2987 RMK A01 T00161021  RH  076%=      5-min Rain = 0
KDO1 221616Z 35023G28KT 01/M02 A2987 RMK A01 T00141022  RH  077%=      5-min Rain = 0
KDO1 221617Z 35021G26KT 01/M02 A2987 RMK A01 T00131023  RH  077%=      5-min Rain = 0
KDO1 221618Z 34021KT 01/M02 A2987 RMK A01 T00131023  RH  077%=      5-min Rain = 0
KDO1 221619Z 34021KT 01/M02 A2988 RMK A01 T00131022  RH  077%=      5-min Rain = 0
KDO1 221620Z 34017G24KT 01/M02 A2988 RMK A01 T00131022  RH  077%=      5-min Rain = 0
KDO1 221621Z 33022G27KT 01/M02 A2988 RMK A01 T00131022  RH  077%=      5-min Rain = 0
KDO1 221622Z 33018G25KT 01/M02 A2988 RMK A01 T00131023  RH  077%=      5-min Rain = 0
KDO1 221623Z 33018KT 01/M02 A2988 RMK A01 T00131023  RH  077%=      5-min Rain = 0
KDO1 221624Z 34021G29KT 01/M02 A2988 RMK A01 T00141023  RH  076%=      5-min Rain = 0
KDO1 221625Z 34021G27KT 01/M02 A2987 RMK A01 T00141024  RH  076%=      5-min Rain = 0
KDO1 221626Z 34019G24KT 01/M03 A2987 RMK A01 T00131025  RH  076%=      5-min Rain = 0
KDO1 221627Z 35020KT 01/M03 A2987 RMK A01 T00131025  RH  076%=      5-min Rain = 0
KDO1 221628Z 35020G25KT 01/M03 A2987 RMK A01 T00131026  RH  075%=      5-min Rain = 0
KDO1 221629Z 35017G22KT 01/M03 A2987 RMK A01 T00131026  RH  075%=      5-min Rain = 0
KDO1 221630Z 35019G25KT 01/M03 A2987 RMK A01 T00131026  RH  075%=      5-min Rain = 0
KDO1 221631Z 34022KT 01/M03 A2987 RMK A01 T00121027  RH  075%=      5-min Rain = 0
KDO1 221632Z 34023G31KT 01/M03 A2988 RMK A01 T00121027  RH  075%=      5-min Rain = 0
KDO1 221633Z 34023G28KT 01/M03 A2988 RMK A01 T00121027  RH  075%=      5-min Rain = 0
KDO1 221634Z 34021G26KT 01/M03 A2988 RMK A01 T00121027  RH  075%=      5-min Rain = 0
KDO1 221635Z 34023G28KT 01/M03 A2987 RMK A01 T00121028  RH  075%=      5-min Rain = 0
KDO1 221636Z 34019G28KT 01/M03 A2987 RMK A01 T00121028  RH  075%=      5-min Rain = 0
KDO1 221637Z 35021G27KT 01/M03 A2987 RMK A01 T00121027  RH  075%=      5-min Rain = 0
KDO1 221638Z 34025KT 01/M03 A2988 RMK A01 T00131028  RH  074%=      5-min Rain = 0
KDO1 221639Z 34023G29KT 01/M03 A2988 RMK A01 T00121029  RH  074%=      5-min Rain = 0
KDO1 221640Z 34022G28KT 01/M03 A2988 RMK A01 T00121029  RH  074%=      5-min Rain = 0
KDO1 221641Z 34025KT 01/M03 A2988 RMK A01 T00131029  RH  074%=      5-min Rain = 0
KDO1 221642Z 34020G27KT 01/M03 A2987 RMK A01 T00131029  RH  074%=      5-min Rain = 0
KDO1 221643Z 34020G27KT 02/M03 A2988 RMK A01 T00151026  RH  074%=      5-min Rain = 0
KDO1 221644Z 35021G27KT 02/M03 A2988 RMK A01 T00161026  RH  074%=      5-min Rain = 0
KDO1 221645Z 34019KT 02/M03 A2988 RMK A01 T00161027  RH  074%=      5-min Rain = 0
KDO1 221646Z 35022G29KT 02/M03 A2988 RMK A01 T00161026  RH  073%=      5-min Rain = 0
KDO1 221647Z 35020G26KT 02/M03 A2988 RMK A01 T00161028  RH  073%=      5-min Rain = 0
KDO1 221648Z 34023G29KT 02/M03 A2988 RMK A01 T00161028  RH  073%=      5-min Rain = 0
KDO1 221649Z 34021G26KT 02/M03 A2989 RMK A01 T00151029  RH  072%=      5-min Rain = 0
KDO1 221650Z 35020G28KT 02/M03 A2989 RMK A01 T00161028  RH  072%=      5-min Rain = 0
KDO1 221651Z 35018G23KT 02/M03 A2989 RMK A01 T00161028  RH  072%=      5-min Rain = 0
KDO1 221652Z 34017G28KT 02/M03 A2989 RMK A01 T00171027  RH  073%=      5-min Rain = 0
KDO1 221653Z 35024KT 02/M03 A2989 RMK A01 T00181028  RH  072%=      5-min Rain = 0
KDO1 221654Z 34019G26KT 02/M03 A2988 RMK A01 T00171030  RH  071%=      5-min Rain = 0
KDO1 221655Z 35018G26KT 02/M03 A2988 RMK A01 T00171030  RH  071%=      5-min Rain = 0
KDO1 221656Z 34020G25KT 02/M03 A2988 RMK A01 T00181029  RH  071%=      5-min Rain = 0
KDO1 221657Z 34019G26KT 02/M03 A2988 RMK A01 T00191029  RH  071%=      5-min Rain = 0
KDO1 221658Z 35022G30KT 02/M03 A2988 RMK A01 T00201028  RH  070%=      5-min Rain = 0
KDO1 221659Z 34019G27KT 02/M03 A2988 RMK A01 T00211029  RH  070%=      5-min Rain = 0
KDO1 221700Z 34017G23KT 02/M03 A2988 RMK A01 T00211027  RH  070%=      5-min Rain = 0
KDO1 221701Z 34025G31KT 02/M03 A2988 RMK A01 T00241027  RH  069%=      5-min Rain = 0
KDO1 221702Z 34025G31KT 02/M03 A2988 RMK A01 T00221029  RH  069%=      5-min Rain = 0
KDO1 221703Z 34022G31KT 02/M03 A2987 RMK A01 T00201030  RH  069%=      5-min Rain = 0
KDO1 221704Z 34020G30KT 02/M03 A2988 RMK A01 T00191030  RH  070%=      5-min Rain = 0
KDO1 221705Z 34025G31KT 02/M03 A2989 RMK A01 T00191029  RH  070%=      5-min Rain = 0
KDO1 221706Z 33024G29KT 02/M03 A299 RMK A01 T00171031  RH  070%=      5-min Rain = 0
KDO1 221707Z 33022G28KT 02/M03 A299 RMK A01 T00161031  RH  071%=      5-min Rain = 0
KDO1 221708Z 35025G30KT 02/M03 A2989 RMK A01 T00161030  RH  071%=      5-min Rain = 0
KDO1 221709Z 35025G31KT 02/M03 A2988 RMK A01 T00161031  RH  071%=      5-min Rain = 0
KDO1 221710Z 34024G32KT 02/M03 A2987 RMK A01 T00171029  RH  071%=      5-min Rain = 0
KDO1 221711Z 35024G31KT 02/M03 A2988 RMK A01 T00181030  RH  070%=      5-min Rain = 0
KDO1 221712Z 35022G27KT 02/M03 A2988 RMK A01 T00181030  RH  070%=      5-min Rain = 0
KDO1 221713Z 34022G27KT 02/M03 A2989 RMK A01 T00171032  RH  070%=      5-min Rain = 0
KDO1 221714Z 33020G25KT 02/M03 A2989 RMK A01 T00161032  RH  070%=      5-min Rain = 0
KDO1 221715Z 34019G27KT 02/M03 A2989 RMK A01 T00151032  RH  071%=      5-min Rain = 0
KDO1 221716Z 36018G24KT 02/M03 A2989 RMK A01 T00151032  RH  071%=      5-min Rain = 0
KDO1 221717Z 35022G27KT 02/M03 A2989 RMK A01 T00161032  RH  070%=      5-min Rain = 0
KDO1 221718Z 34021G28KT 02/M03 A2989 RMK A01 T00161033  RH  070%=      5-min Rain = 0
KDO1 221719Z 35021G27KT 02/M03 A2989 RMK A01 T00161033  RH  070%=      5-min Rain = 0
KDO1 221720Z 35020G25KT 02/M03 A299 RMK A01 T00161034  RH  069%=      5-min Rain = 0
KDO1 221721Z 35021G27KT 02/M04 A299 RMK A01 T00161035  RH  069%=      5-min Rain = 0
KDO1 221722Z 35021G28KT 02/M04 A299 RMK A01 T00151036  RH  069%=      5-min Rain = 0
KDO1 221723Z 36022G27KT 02/M04 A299 RMK A01 T00151036  RH  068%=      5-min Rain = 0
KDO1 221724Z 35024G29KT 02/M04 A2991 RMK A01 T00151037  RH  069%=      5-min Rain = 0
KDO1 221725Z 34024G31KT 01/M04 A2991 RMK A01 T00141037  RH  068%=      5-min Rain = 0
KDO1 221726Z 34018G25KT 01/M04 A2991 RMK A01 T00141037  RH  069%=      5-min Rain = 0
KDO1 221727Z 35020G27KT 01/M04 A2991 RMK A01 T00141037  RH  069%=      5-min Rain = 0
KDO1 221728Z 35024G29KT 01/M04 A2991 RMK A01 T00141037  RH  069%=      5-min Rain = 0
KDO1 221729Z 34020G29KT 02/M04 A2991 RMK A01 T00151036  RH  069%=      5-min Rain = 0
KDO1 221730Z 34022G29KT 01/M04 A2992 RMK A01 T00141037  RH  069%=      5-min Rain = 0
KDO1 221731Z 35023G31KT 01/M04 A2992 RMK A01 T00141036  RH  069%=      5-min Rain = 0
KDO1 221732Z 34023G29KT 01/M04 A2992 RMK A01 T00141037  RH  069%=      5-min Rain = 0
KDO1 221733Z 34023G29KT 01/M04 A2992 RMK A01 T00131037  RH  069%=      5-min Rain = 0
KDO1 221734Z 34022G28KT 01/M04 A2992 RMK A01 T00131037  RH  069%=      5-min Rain = 0
KDO1 221735Z 34023G29KT 01/M04 A2992 RMK A01 T00131037  RH  069%=      5-min Rain = 0
KDO1 221736Z 34020G31KT 01/M04 A2992 RMK A01 T00131038  RH  069%=      5-min Rain = 0
KDO1 221737Z 35022KT 01/M04 A2992 RMK A01 T00131037  RH  069%=      5-min Rain = 0
KDO1 221738Z 35022G27KT 01/M04 A2992 RMK A01 T00131038  RH  069%=      5-min Rain = 0
KDO1 221739Z 34024G33KT 01/M04 A2992 RMK A01 T00131038  RH  069%=      5-min Rain = 0
KDO1 221740Z 34026G31KT 01/M04 A2991 RMK A01 T00131038  RH  069%=      5-min Rain = 0
KDO1 221741Z 35027KT 01/M04 A2991 RMK A01 T00121038  RH  069%=      5-min Rain = 0
KDO1 221742Z 35024KT 01/M04 A2992 RMK A01 T00131038  RH  069%=      5-min Rain = 0
KDO1 221743Z 34021G27KT 01/M04 A2991 RMK A01 T00141037  RH  069%=      5-min Rain = 0
KDO1 221744Z 35025G30KT 02/M04 A2991 RMK A01 T00151037  RH  068%=      5-min Rain = 0
KDO1 221745Z 35020G27KT 02/M04 A2991 RMK A01 T00151037  RH  068%=      5-min Rain = 0
KDO1 221746Z 34026G32KT 02/M04 A2991 RMK A01 T00161037  RH  068%=      5-min Rain = 0
KDO1 221747Z 34021G32KT 02/M04 A2991 RMK A01 T00161038  RH  067%=      5-min Rain = 0
KDO1 221748Z 34023KT 02/M04 A2991 RMK A01 T00161037  RH  068%=      5-min Rain = 0
KDO1 221749Z 35021G26KT 02/M04 A2991 RMK A01 T00161038  RH  067%=      5-min Rain = 0
KDO1 221750Z 35023G28KT 02/M04 A2991 RMK A01 T00161038  RH  067%=      5-min Rain = 0
KDO1 221751Z 34028G35KT 02/M04 A2991 RMK A01 T00161039  RH  067%=      5-min Rain = 0
KDO1 221752Z 34027G32KT 01/M04 A2992 RMK A01 T00141040  RH  067%=      5-min Rain = 0
KDO1 221753Z 34024G30KT 01/M04 A2992 RMK A01 T00141040  RH  068%=      5-min Rain = 0
KDO1 221754Z 34019G25KT 01/M04 A2992 RMK A01 T00131039  RH  068%=      5-min Rain = 0
KDO1 221755Z 34022G27KT 01/M04 A2992 RMK A01 T00141038  RH  068%=      5-min Rain = 0
KDO1 221756Z 33023G29KT 02/M04 A2992 RMK A01 T00151038  RH  068%=      5-min Rain = 0
KDO1 221757Z 34022G30KT 01/M04 A2992 RMK A01 T00141038  RH  068%=      5-min Rain = 0
KDO1 221758Z 34024G30KT 01/M04 A2992 RMK A01 T00131038  RH  068%=      5-min Rain = 0
KDO1 221759Z 34023G30KT 01/M04 A2993 RMK A01 T00121038  RH  069%=      5-min Rain = 0
KDO1 221800Z 34028G35KT 01/M04 A2992 RMK A01 T00111038  RH  069%=      5-min Rain = 0
KDO1 221801Z 35024G30KT 01/M04 A2993 RMK A01 T00101039  RH  070%=      5-min Rain = 0
KDO1 221802Z 34023G28KT 01/M04 A2993 RMK A01 T00091038  RH  070%=      5-min Rain = 0
KDO1 221803Z 35019G26KT 01/M04 A2993 RMK A01 T00091038  RH  071%=      5-min Rain = 0
KDO1 221804Z 34022G28KT 01/M04 A2994 RMK A01 T00091037  RH  071%=      5-min Rain = 0
KDO1 221805Z 35022G27KT 01/M04 A2994 RMK A01 T00091038  RH  071%=      5-min Rain = 0
KDO1 221806Z 35017KT 01/M04 A2994 RMK A01 T00091038  RH  071%=      5-min Rain = 0
KDO1 221807Z 34018G26KT 01/M04 A2993 RMK A01 T00091037  RH  071%=      5-min Rain = 0
KDO1 221808Z 34023KT 01/M04 A2993 RMK A01 T00101037  RH  071%=      5-min Rain = 0
KDO1 221809Z 34022G27KT 01/M04 A2993 RMK A01 T00101037  RH  071%=      5-min Rain = 0
KDO1 221810Z 35022KT 01/M04 A2993 RMK A01 T00101037  RH  071%=      5-min Rain = 0
KDO1 221811Z 34019G24KT 01/M04 A2993 RMK A01 T00091037  RH  071%=      5-min Rain = 0
KDO1 221812Z 34018G23KT 01/M04 A2993 RMK A01 T00091037  RH  071%=      5-min Rain = 0
KDO1 221813Z 34018G24KT 01/M04 A2993 RMK A01 T00091037  RH  071%=      5-min Rain = 0
KDO1 221814Z 33017G25KT 01/M04 A2994 RMK A01 T00091036  RH  071%=      5-min Rain = 0
KDO1 221815Z 34023KT 01/M04 A2993 RMK A01 T00101036  RH  071%=      5-min Rain = 0
KDO1 221816Z 34023KT 01/M04 A2993 RMK A01 T00091037  RH  071%=      5-min Rain = 0
KDO1 221817Z 35021KT 01/M04 A2993 RMK A01 T00091037  RH  072%=      5-min Rain = 0
KDO1 221818Z 35019G24KT 01/M04 A2993 RMK A01 T00081037  RH  072%=      5-min Rain = 0
KDO1 221819Z 35017G23KT 01/M04 A2993 RMK A01 T00081036  RH  072%=      5-min Rain = 0
KDO1 221820Z 36022G27KT 01/M04 A2993 RMK A01 T00081037  RH  072%=      5-min Rain = 0
KDO1 221821Z 35020KT 01/M04 A2993 RMK A01 T00081037  RH  072%=      5-min Rain = 0
KDO1 221822Z 35021G27KT 01/M04 A2993 RMK A01 T00081037  RH  072%=      5-min Rain = 0
KDO1 221823Z 35017G22KT 01/M04 A2993 RMK A01 T00081037  RH  072%=      5-min Rain = 0
KDO1 221824Z 34017G23KT 01/M04 A2994 RMK A01 T00091036  RH  072%=      5-min Rain = 0
KDO1 221825Z 33021G32KT 01/M04 A2994 RMK A01 T00091036  RH  072%=      5-min Rain = 0
KDO1 221826Z 34021G28KT 01/M04 A2994 RMK A01 T00091037  RH  071%=      5-min Rain = 0
KDO1 221827Z 34023G29KT 01/M04 A2994 RMK A01 T00091038  RH  071%=      5-min Rain = 0
KDO1 221828Z 34024G32KT 01/M04 A2994 RMK A01 T00081038  RH  071%=      5-min Rain = 0
KDO1 221829Z 34022G27KT 01/M04 A2994 RMK A01 T00081037  RH  072%=      5-min Rain = 0
KDO1 221830Z 34025G34KT 01/M04 A2994 RMK A01 T00081038  RH  072%=      5-min Rain = 0
KDO1 221831Z 34024G30KT 01/M04 A2994 RMK A01 T00081037  RH  072%=      5-min Rain = 0
KDO1 221832Z 34025KT 01/M04 A2994 RMK A01 T00081038  RH  072%=      5-min Rain = 0
KDO1 221833Z 34023G28KT 01/M04 A2994 RMK A01 T00071038  RH  072%=      5-min Rain = 0
KDO1 221834Z 34021G27KT 01/M04 A2994 RMK A01 T00071038  RH  072%=      5-min Rain = 0
KDO1 221835Z 34023KT 01/M04 A2994 RMK A01 T00071038  RH  072%=      5-min Rain = 0
KDO1 221836Z 34024G34KT 01/M04 A2994 RMK A01 T00081038  RH  071%=      5-min Rain = 0
KDO1 221837Z 34024G31KT 01/M04 A2994 RMK A01 T00081038  RH  071%=      5-min Rain = 0
KDO1 221838Z 34020G31KT 01/M04 A2994 RMK A01 T00081039  RH  071%=      5-min Rain = 0
KDO1 221839Z 34023G32KT 01/M04 A2994 RMK A01 T00091038  RH  071%=      5-min Rain = 0
KDO1 221840Z 34021G29KT 01/M04 A2994 RMK A01 T00091039  RH  071%=      5-min Rain = 0
KDO1 221841Z 35025G30KT 01/M04 A2994 RMK A01 T00091038  RH  071%=      5-min Rain = 0
KDO1 221842Z 35024G29KT 01/M04 A2994 RMK A01 T00081039  RH  070%=      5-min Rain = 0
KDO1 221843Z 35021G26KT 01/M04 A2994 RMK A01 T00081039  RH  071%=      5-min Rain = 0
KDO1 221844Z 35018G24KT 01/M04 A2994 RMK A01 T00081039  RH  071%=      5-min Rain = 0
KDO1 221845Z 34019KT 01/M04 A2994 RMK A01 T00091038  RH  071%=      5-min Rain = 0
KDO1 221846Z 35020G26KT 01/M04 A2994 RMK A01 T00091038  RH  071%=      5-min Rain = 0
KDO1 221847Z 36025KT 01/M04 A2994 RMK A01 T00091038  RH  071%=      5-min Rain = 0
KDO1 221848Z 35022G27KT 01/M04 A2994 RMK A01 T00081038  RH  071%=      5-min Rain = 0
KDO1 221849Z 35023G28KT 01/M04 A2994 RMK A01 T00081038  RH  071%=      5-min Rain = 0
KDO1 221850Z 34020KT 01/M04 A2995 RMK A01 T00081038  RH  071%=      5-min Rain = 0
KDO1 221851Z 34020G27KT 01/M04 A2994 RMK A01 T00081038  RH  071%=      5-min Rain = 0
KDO1 221852Z 34025KT 01/M04 A2994 RMK A01 T00091038  RH  071%=      5-min Rain = 0
KDO1 221853Z 35019G26KT 01/M04 A2994 RMK A01 T00101038  RH  070%=      5-min Rain = 0
KDO1 221854Z 33021G27KT 01/M04 A2994 RMK A01 T00111038  RH  070%=      5-min Rain = 0
KDO1 221855Z 34022KT 01/M04 A2994 RMK A01 T00111037  RH  070%=      5-min Rain = 0
KDO1 221856Z 35019G29KT 01/M04 A2994 RMK A01 T00121037  RH  070%=      5-min Rain = 0
KDO1 221857Z 34024G29KT 01/M04 A2994 RMK A01 T00121038  RH  069%=      5-min Rain = 0
KDO1 221858Z 34023G28KT 01/M04 A2994 RMK A01 T00101040  RH  069%=      5-min Rain = 0
KDO1 221859Z 35020G30KT 01/M04 A2994 RMK A01 T00091040  RH  070%=      5-min Rain = 0
KDO1 221900Z 34019G28KT 01/M04 A2994 RMK A01 T00091040  RH  070%=      5-min Rain = 0
KDO1 221901Z 35021G29KT 01/M04 A2994 RMK A01 T00091039  RH  070%=      5-min Rain = 0
KDO1 221902Z 35024KT 01/M04 A2994 RMK A01 T00091040  RH  070%=      5-min Rain = 0
KDO1 221903Z 36023KT 01/M04 A2994 RMK A01 T00091040  RH  070%=      5-min Rain = 0
KDO1 221904Z 35021KT 01/M04 A2994 RMK A01 T00081040  RH  070%=      5-min Rain = 0
KDO1 221905Z 35019G26KT 01/M04 A2994 RMK A01 T00081039  RH  070%=      5-min Rain = 0
KDO1 221906Z 35018KT 01/M04 A2994 RMK A01 T00091039  RH  070%=      5-min Rain = 0
KDO1 221907Z 34019KT 01/M04 A2994 RMK A01 T00091039  RH  070%=      5-min Rain = 0
KDO1 221908Z 34017G25KT 01/M04 A2994 RMK A01 T00101038  RH  070%=      5-min Rain = 0
KDO1 221909Z 35022KT 01/M04 A2994 RMK A01 T00101038  RH  070%=      5-min Rain = 0
KDO1 221910Z 34019G24KT 01/M04 A2994 RMK A01 T00101039  RH  070%=      5-min Rain = 0
KDO1 221911Z 34019KT 01/M04 A2995 RMK A01 T00091039  RH  070%=      5-min Rain = 0
KDO1 221912Z 35019KT 01/M04 A2995 RMK A01 T00101039  RH  070%=      5-min Rain = 0
KDO1 221913Z 35021G27KT 01/M04 A2995 RMK A01 T00101038  RH  070%=      5-min Rain = 0
KDO1 221914Z 35022G30KT 01/M04 A2995 RMK A01 T00091039  RH  070%=      5-min Rain = 0
KDO1 221915Z 34019KT 01/M04 A2995 RMK A01 T00091039  RH  071%=      5-min Rain = 0
KDO1 221916Z 34017G24KT 01/M04 A2995 RMK A01 T00091038  RH  071%=      5-min Rain = 0
KDO1 221917Z 34016KT 01/M04 A2995 RMK A01 T00091038  RH  071%=      5-min Rain = 0
KDO1 221918Z 34013KT 01/M04 A2995 RMK A01 T00101037  RH  071%=      5-min Rain = 0
KDO1 221919Z 34014KT 01/M04 A2995 RMK A01 T00101037  RH  071%=      5-min Rain = 0
KDO1 221920Z 34013KT 01/M04 A2995 RMK A01 T00111037  RH  071%=      5-min Rain = 0
KDO1 221921Z 35017G24KT 01/M04 A2994 RMK A01 T00111037  RH  070%=      5-min Rain = 0
KDO1 221922Z 33016G21KT 01/M04 A2994 RMK A01 T00101038  RH  070%=      5-min Rain = 0
KDO1 221923Z 33014KT 01/M04 A2994 RMK A01 T00111036  RH  071%=      5-min Rain = 0
KDO1 221924Z 34016G21KT 01/M04 A2994 RMK A01 T00111036  RH  071%=      5-min Rain = 0
KDO1 221925Z 34021G28KT 01/M04 A2995 RMK A01 T00111037  RH  071%=      5-min Rain = 0
KDO1 221926Z 34021G26KT 01/M04 A2995 RMK A01 T00101038  RH  071%=      5-min Rain = 0
KDO1 221927Z 34021G27KT 01/M04 A2995 RMK A01 T00081038  RH  071%=      5-min Rain = 0
KDO1 221928Z 34022G27KT 01/M04 A2995 RMK A01 T00081038  RH  071%=      5-min Rain = 0
KDO1 221929Z 34021G28KT 01/M04 A2995 RMK A01 T00071038  RH  072%=      5-min Rain = 0
KDO1 221930Z 34023G28KT 01/M04 A2995 RMK A01 T00071038  RH  072%=      5-min Rain = 0
KDO1 221931Z 34022G27KT 01/M04 A2995 RMK A01 T00061038  RH  072%=      5-min Rain = 0
KDO1 221932Z 35021G27KT 01/M04 A2995 RMK A01 T00061037  RH  073%=      5-min Rain = 0
KDO1 221933Z 34022G27KT 01/M04 A2995 RMK A01 T00061037  RH  073%=      5-min Rain = 0
KDO1 221934Z 34021KT 01/M04 A2994 RMK A01 T00061037  RH  073%=      5-min Rain = 0
KDO1 221935Z 34021G27KT 01/M04 A2994 RMK A01 T00061037  RH  073%=      5-min Rain = 0
KDO1 221936Z 35024G32KT 01/M04 A2994 RMK A01 T00061038  RH  072%=      5-min Rain = 0
KDO1 221937Z 34025KT 01/M04 A2994 RMK A01 T00051039  RH  072%=      5-min Rain = 0
KDO1 221938Z 34022G27KT 01/M04 A2994 RMK A01 T00051039  RH  073%=      5-min Rain = 0
KDO1 221939Z 33025G32KT 00/M04 A2994 RMK A01 T00041039  RH  073%=      5-min Rain = 0
KDO1 221940Z 33021G26KT 00/M04 A2994 RMK A01 T00041039  RH  073%=      5-min Rain = 0
KDO1 221941Z 33019G24KT 00/M04 A2995 RMK A01 T00041039  RH  073%=      5-min Rain = 0
KDO1 221942Z 33019G24KT 01/M04 A2995 RMK A01 T00051039  RH  073%=      5-min Rain = 0
KDO1 221943Z 33023G28KT 01/M04 A2995 RMK A01 T00051039  RH  072%=      5-min Rain = 0
KDO1 221944Z 34022G27KT 00/M04 A2995 RMK A01 T00041040  RH  072%=      5-min Rain = 0
KDO1 221945Z 34022G27KT 00/M04 A2995 RMK A01 T00041040  RH  072%=      5-min Rain = 0
KDO1 221946Z 33025KT 00/M04 A2994 RMK A01 T00031040  RH  072%=      5-min Rain = 0
KDO1 221947Z 33017G24KT 00/M04 A2995 RMK A01 T00031040  RH  073%=      5-min Rain = 0
KDO1 221948Z 33019G25KT 00/M04 A2994 RMK A01 T00031040  RH  073%=      5-min Rain = 0
KDO1 221949Z 33020G26KT 00/M04 A2995 RMK A01 T00031041  RH  072%=      5-min Rain = 0
KDO1 221950Z 33026G31KT 00/M04 A2995 RMK A01 T00031042  RH  072%=      5-min Rain = 0
KDO1 221951Z 34017G22KT 00/M04 A2995 RMK A01 T00021043  RH  072%=      5-min Rain = 0
KDO1 221952Z 34021KT 00/M04 A2995 RMK A01 T00011043  RH  072%=      5-min Rain = 0
KDO1 221953Z 33026G33KT 00/M04 A2995 RMK A01 T00011044  RH  072%=      5-min Rain = 0
KDO1 221954Z 33026KT 00/M05 A2995 RMK A01 T00011045  RH  071%=      5-min Rain = 0
KDO1 221955Z 34020G26KT 00/05 A2996 RMK A01 T00-00-45  RH  072%=      5-min Rain = 0
KDO1 221956Z 33020G25KT 00/05 A2996 RMK A01 T00-00-45  RH  072%=      5-min Rain = 0
KDO1 221957Z 33025G30KT 00/M05 A2996 RMK A01 T00011045  RH  071%=      5-min Rain = 0
KDO1 221958Z 33024G30KT 00/05 A2996 RMK A01 T00000-46  RH  071%=      5-min Rain = 0
KDO1 221959Z 33020G30KT 00/05 A2996 RMK A01 T00000-45  RH  071%=      5-min Rain = 0
KDO1 222000Z 33022G29KT 00/M04 A2996 RMK A01 T00011044  RH  071%=      5-min Rain = 0
KDO1 222001Z 33025G31KT 00/M05 A2996 RMK A01 T00021045  RH  071%=      5-min Rain = 0
KDO1 222002Z 33022G29KT 00/M05 A2996 RMK A01 T00011046  RH  071%=      5-min Rain = 0
KDO1 222003Z 33019G25KT 00/M05 A2996 RMK A01 T00011045  RH  071%=      5-min Rain = 0
KDO1 222004Z 33021G27KT 00/M05 A2996 RMK A01 T00011045  RH  071%=      5-min Rain = 0
KDO1 222005Z 33021G27KT 00/M05 A2996 RMK A01 T00021045  RH  070%=      5-min Rain = 0
KDO1 222006Z 33024G30KT 00/M05 A2996 RMK A01 T00031045  RH  070%=      5-min Rain = 0
KDO1 222007Z 32026G32KT 00/M05 A2995 RMK A01 T00031046  RH  070%=      5-min Rain = 0
KDO1 222008Z 33023G28KT 00/M05 A2995 RMK A01 T00031046  RH  069%=      5-min Rain = 0
KDO1 222009Z 33023G28KT 01/M05 A2995 RMK A01 T00051046  RH  069%=      5-min Rain = 0
KDO1 222010Z 32024KT 01/M05 A2995 RMK A01 T00071045  RH  068%=      5-min Rain = 0
KDO1 222011Z 32020G28KT 01/M04 A2996 RMK A01 T00091043  RH  068%=      5-min Rain = 0
KDO1 222012Z 32022G27KT 01/M04 A2995 RMK A01 T00111044  RH  067%=      5-min Rain = 0
KDO1 222013Z 32022G27KT 01/M05 A2995 RMK A01 T00101046  RH  066%=      5-min Rain = 0
KDO1 222014Z 34019KT 01/M05 A2996 RMK A01 T00091046  RH  066%=      5-min Rain = 0
KDO1 222015Z 34018G23KT 01/M05 A2996 RMK A01 T00091046  RH  066%=      5-min Rain = 0
KDO1 222016Z 33022G27KT 01/M05 A2996 RMK A01 T00111045  RH  066%=      5-min Rain = 0
KDO1 222017Z 34017G24KT 01/M05 A2996 RMK A01 T00101047  RH  066%=      5-min Rain = 0
KDO1 222018Z 33020G26KT 01/M05 A2996 RMK A01 T00091047  RH  066%=      5-min Rain = 0
KDO1 222019Z 33017G24KT 01/M05 A2996 RMK A01 T00081049  RH  066%=      5-min Rain = 0
KDO1 222020Z 34023G28KT 01/M05 A2996 RMK A01 T00061050  RH  066%=      5-min Rain = 0
KDO1 222021Z 33023G30KT 00/M05 A2996 RMK A01 T00041052  RH  066%=      5-min Rain = 0
KDO1 222022Z 33022KT 00/M05 A2996 RMK A01 T00021052  RH  067%=      5-min Rain = 0
KDO1 222023Z 33021KT 00/M05 A2996 RMK A01 T00021052  RH  067%=      5-min Rain = 0
KDO1 222024Z 32020G27KT 00/M05 A2996 RMK A01 T00031051  RH  067%=      5-min Rain = 0
KDO1 222025Z 33024G31KT 00/M05 A2997 RMK A01 T00031052  RH  067%=      5-min Rain = 0
KDO1 222026Z 33022G29KT 00/M05 A2997 RMK A01 T00021053  RH  067%=      5-min Rain = 0
KDO1 222027Z 34019G25KT 00/M05 A2996 RMK A01 T00011054  RH  066%=      5-min Rain = 0
KDO1 222028Z 34021KT 00/M05 A2996 RMK A01 T00011054  RH  066%=      5-min Rain = 0
KDO1 222029Z 34024KT 00/M06 A2997 RMK A01 T00011055  RH  066%=      5-min Rain = 0
KDO1 222030Z 34022G27KT 00/06 A2997 RMK A01 T00000-55  RH  066%=      5-min Rain = 0
KDO1 222031Z 34023G31KT 00/06 A2997 RMK A01 T00000-55  RH  066%=      5-min Rain = 0
KDO1 222032Z 34022G28KT 00/M06 A2997 RMK A01 T00011056  RH  066%=      5-min Rain = 0
KDO1 222033Z 34022G29KT 00/M06 A2997 RMK A01 T00011057  RH  065%=      5-min Rain = 0
KDO1 222034Z 33023G29KT 00/M06 A2997 RMK A01 T00011057  RH  065%=      5-min Rain = 0
KDO1 222035Z 33023G29KT 00/06 A2997 RMK A01 T00000-58  RH  065%=      5-min Rain = 0
KDO1 222036Z 33020G28KT 00/06 A2997 RMK A01 T00000-58  RH  065%=      5-min Rain = 0
KDO1 222037Z 34024G29KT 00/M06 A2997 RMK A01 T00011058  RH  065%=      5-min Rain = 0
KDO1 222038Z 34022G28KT 00/06 A2997 RMK A01 T00000-59  RH  064%=      5-min Rain = 0
KDO1 222039Z 34024G30KT 00/06 A2997 RMK A01 T00-00-59  RH  064%=      5-min Rain = 0
KDO1 222040Z 33022G27KT 00/06 A2997 RMK A01 T00000-59  RH  064%=      5-min Rain = 0
KDO1 222041Z 33021G26KT 00/M06 A2997 RMK A01 T00011059  RH  064%=      5-min Rain = 0
KDO1 222042Z 33024G30KT 00/M06 A2997 RMK A01 T00011059  RH  064%=      5-min Rain = 0
KDO1 222043Z 33023G29KT 00/M06 A2997 RMK A01 T00011060  RH  063%=      5-min Rain = 0
KDO1 222044Z 33022G32KT 00/M06 A2997 RMK A01 T00011060  RH  063%=      5-min Rain = 0
KDO1 222045Z 33027KT 00/M06 A2997 RMK A01 T00011060  RH  063%=      5-min Rain = 0
KDO1 222046Z 33022G31KT 00/06 A2997 RMK A01 T00-00-61  RH  063%=      5-min Rain = 0
KDO1 222047Z 34024G30KT M00/M06 A2998 RMK A01 T10011061  RH  064%=      5-min Rain = 0
KDO1 222048Z 33024KT M00/M06 A2998 RMK A01 T10011061  RH  064%=      5-min Rain = 0
KDO1 222049Z 33023G28KT M00/M06 A2998 RMK A01 T10011060  RH  064%=      5-min Rain = 0
KDO1 222050Z 33021G27KT M00/M06 A2998 RMK A01 T10011060  RH  064%=      5-min Rain = 0
KDO1 222051Z 33025KT M00/M06 A2998 RMK A01 T10011060  RH  064%=      5-min Rain = 0
KDO1 222052Z 34021G27KT M00/M06 A2999 RMK A01 T10011061  RH  064%=      5-min Rain = 0
KDO1 222053Z 33019G26KT M00/M06 A2999 RMK A01 T10021061  RH  064%=      5-min Rain = 0
KDO1 222054Z 33021G28KT M00/M06 A2998 RMK A01 T10011060  RH  065%=      5-min Rain = 0
KDO1 222055Z 33021KT M00/M06 A2998 RMK A01 T10011060  RH  064%=      5-min Rain = 0
KDO1 222056Z 33018G24KT M00/M06 A2998 RMK A01 T10021061  RH  065%=      5-min Rain = 0
KDO1 222057Z 33017KT M00/M06 A2998 RMK A01 T10011060  RH  065%=      5-min Rain = 0
KDO1 222058Z 33017KT M00/M06 A2998 RMK A01 T10011060  RH  064%=      5-min Rain = 0
KDO1 222059Z 33021G26KT 00/06 A2998 RMK A01 T00-00-61  RH  064%=      5-min Rain = 0
KDO1 222100Z 32022G27KT 00/06 A2998 RMK A01 T00-00-62  RH  063%=      5-min Rain = 0
KDO1 222101Z 32022G28KT M00/M06 A2998 RMK A01 T10011064  RH  063%=      5-min Rain = 0
KDO1 222102Z 32021KT M00/M06 A2999 RMK A01 T10021064  RH  063%=      5-min Rain = 0
KDO1 222103Z 33020G26KT M00/M06 A2999 RMK A01 T10021064  RH  063%=      5-min Rain = 0
KDO1 222104Z 32021G30KT M00/M06 A2999 RMK A01 T10011064  RH  063%=      5-min Rain = 0
KDO1 222105Z 33023KT 00/07 A2999 RMK A01 T00-00-65  RH  062%=      5-min Rain = 0
KDO1 222106Z 33021G26KT M00/M07 A2999 RMK A01 T10011067  RH  061%=      5-min Rain = 0
KDO1 222107Z 33025G31KT M00/M07 A2999 RMK A01 T10021067  RH  061%=      5-min Rain = 0
KDO1 222108Z 32020KT M00/M07 A2999 RMK A01 T10021068  RH  061%=      5-min Rain = 0
KDO1 222109Z 32022G27KT 00/07 A2999 RMK A01 T00-00-67  RH  061%=      5-min Rain = 0
KDO1 222110Z 33021KT 00/M07 A2999 RMK A01 T00011068  RH  060%=      5-min Rain = 0
KDO1 222111Z 33017KT 00/M07 A2999 RMK A01 T00021068  RH  059%=      5-min Rain = 0
KDO1 222112Z 34019G26KT 00/M07 A2999 RMK A01 T00031068  RH  059%=      5-min Rain = 0
KDO1 222113Z 34020G26KT 00/M07 A2999 RMK A01 T00021069  RH  059%=      5-min Rain = 0
KDO1 222114Z 32021G27KT 00/M07 A2999 RMK A01 T00041068  RH  058%=      5-min Rain = 0
KDO1 222115Z 32022G27KT 01/M07 A2998 RMK A01 T00051068  RH  058%=      5-min Rain = 0
KDO1 222116Z 32020G26KT 01/M07 A2999 RMK A01 T00071068  RH  057%=      5-min Rain = 0
KDO1 222117Z 33023KT 01/M07 A2999 RMK A01 T00091067  RH  057%=      5-min Rain = 0
KDO1 222118Z 33019G25KT 01/M07 A2999 RMK A01 T00101068  RH  056%=      5-min Rain = 0
KDO1 222119Z 33018G24KT 01/M07 A2999 RMK A01 T00101069  RH  056%=      5-min Rain = 0
KDO1 222120Z 33021KT 01/M07 A2999 RMK A01 T00091069  RH  056%=      5-min Rain = 0
KDO1 222121Z 33022KT 01/M07 A2999 RMK A01 T00091071  RH  055%=      5-min Rain = 0
KDO1 222122Z 34017G23KT 01/M07 A2999 RMK A01 T00081072  RH  055%=      5-min Rain = 0
KDO1 222123Z 34021G27KT 01/M07 A2999 RMK A01 T00081072  RH  055%=      5-min Rain = 0
KDO1 222124Z 35019G25KT 01/M07 A2999 RMK A01 T00091072  RH  055%=      5-min Rain = 0
KDO1 222125Z 34019G24KT 01/M07 A2999 RMK A01 T00101072  RH  054%=      5-min Rain = 0
KDO1 222126Z 34017G25KT 01/M07 A2999 RMK A01 T00101072  RH  054%=      5-min Rain = 0
KDO1 222127Z 34025G31KT 01/M07 A2999 RMK A01 T00111073  RH  053%=      5-min Rain = 0
KDO1 222128Z 33024G30KT 01/M08 A2999 RMK A01 T00101075  RH  053%=      5-min Rain = 0
KDO1 222129Z 33024G31KT 01/M08 A2999 RMK A01 T00091076  RH  053%=      5-min Rain = 0
KDO1 222130Z 34022G29KT 01/M08 A30 RMK A01 T00091076  RH  053%=      5-min Rain = 0
KDO1 222131Z 33018G24KT 01/M08 A2999 RMK A01 T00081076  RH  053%=      5-min Rain = 0
KDO1 222132Z 32022KT 01/M08 A2999 RMK A01 T00091076  RH  053%=      5-min Rain = 0
KDO1 222133Z 32027G33KT 01/M08 A2999 RMK A01 T00081078  RH  053%=      5-min Rain = 0
KDO1 222134Z 33028KT 01/M08 A2999 RMK A01 T00061080  RH  053%=      5-min Rain = 0
KDO1 222135Z 33025KT 01/M08 A30 RMK A01 T00061080  RH  053%=      5-min Rain = 0
KDO1 222136Z 33024G29KT 01/M08 A30 RMK A01 T00051080  RH  053%=      5-min Rain = 0
KDO1 222137Z 34024G31KT 01/M08 A30 RMK A01 T00061079  RH  053%=      5-min Rain = 0
KDO1 222138Z 33025G30KT 01/M08 A30 RMK A01 T00061079  RH  053%=      5-min Rain = 0
KDO1 222139Z 33018G25KT 01/M08 A30 RMK A01 T00051080  RH  053%=      5-min Rain = 0
KDO1 222140Z 33020G30KT 01/M08 A30 RMK A01 T00061078  RH  053%=      5-min Rain = 0
KDO1 222141Z 33022G29KT 01/M08 A30 RMK A01 T00081079  RH  053%=      5-min Rain = 0
KDO1 222142Z 33020G27KT 01/M08 A30 RMK A01 T00071079  RH  053%=      5-min Rain = 0
KDO1 222143Z 34022KT 01/M08 A30 RMK A01 T00061080  RH  052%=      5-min Rain = 0
KDO1 222144Z 33020G26KT 01/M08 A30 RMK A01 T00051080  RH  053%=      5-min Rain = 0
KDO1 222145Z 33019G26KT 01/M08 A30 RMK A01 T00061080  RH  053%=      5-min Rain = 0
KDO1 222146Z 34018G24KT 01/M08 A3001 RMK A01 T00071079  RH  053%=      5-min Rain = 0
KDO1 222147Z 34018G26KT 01/M08 A3001 RMK A01 T00091079  RH  052%=      5-min Rain = 0
KDO1 222148Z 34023KT 01/M08 A3001 RMK A01 T00101079  RH  051%=      5-min Rain = 0
KDO1 222149Z 33017G25KT 01/M08 A3001 RMK A01 T00091082  RH  051%=      5-min Rain = 0
KDO1 222150Z 33019G29KT 01/M08 A3001 RMK A01 T00091080  RH  051%=      5-min Rain = 0
KDO1 222151Z 33021G26KT 01/M08 A3001 RMK A01 T00091082  RH  051%=      5-min Rain = 0
KDO1 222152Z 33022KT 01/M08 A3001 RMK A01 T00081083  RH  051%=      5-min Rain = 0
KDO1 222153Z 34019G25KT 01/M08 A3001 RMK A01 T00071083  RH  051%=      5-min Rain = 0
KDO1 222154Z 33018G27KT 01/M08 A3001 RMK A01 T00071083  RH  051%=      5-min Rain = 0
KDO1 222155Z 33017KT 01/M08 A3001 RMK A01 T00081082  RH  051%=      5-min Rain = 0
KDO1 222156Z 33017G22KT 01/M08 A3001 RMK A01 T00091081  RH  051%=      5-min Rain = 0
KDO1 222157Z 33016KT 01/M08 A3001 RMK A01 T00101081  RH  051%=      5-min Rain = 0
KDO1 222158Z 32020G27KT 01/M08 A3001 RMK A01 T00101082  RH  050%=      5-min Rain = 0
KDO1 222159Z 32024KT 01/M09 A3001 RMK A01 T00081085  RH  050%=      5-min Rain = 0
KDO1 222200Z 32019KT 01/M09 A3002 RMK A01 T00051086  RH  050%=      5-min Rain = 0
KDO1 222201Z 32020KT 01/M09 A3001 RMK A01 T00051085  RH  051%=      5-min Rain = 0
KDO1 222202Z 34023G30KT 00/M09 A3002 RMK A01 T00041085  RH  051%=      5-min Rain = 0
KDO1 222203Z 34019G26KT 00/M09 A3002 RMK A01 T00041085  RH  051%=      5-min Rain = 0
KDO1 222204Z 34014G20KT 01/M09 A3002 RMK A01 T00051085  RH  051%=      5-min Rain = 0
KDO1 222205Z 33017G23KT 01/M08 A3002 RMK A01 T00061084  RH  051%=      5-min Rain = 0
KDO1 222206Z 34020G26KT 01/M08 A3002 RMK A01 T00071084  RH  051%=      5-min Rain = 0
KDO1 222207Z 34017G23KT 01/M09 A3002 RMK A01 T00061085  RH  050%=      5-min Rain = 0
KDO1 222208Z 34020KT 01/M09 A3002 RMK A01 T00061085  RH  050%=      5-min Rain = 0
KDO1 222209Z 34022KT 00/M09 A3002 RMK A01 T00041088  RH  050%=      5-min Rain = 0
KDO1 222210Z 33018KT 00/M09 A3002 RMK A01 T00031088  RH  051%=      5-min Rain = 0
KDO1 222211Z 32017G23KT 00/M09 A3002 RMK A01 T00031086  RH  051%=      5-min Rain = 0
KDO1 222212Z 32022KT 01/M09 A3002 RMK A01 T00051086  RH  051%=      5-min Rain = 0
KDO1 222213Z 32023G28KT 00/M09 A3002 RMK A01 T00041087  RH  051%=      5-min Rain = 0
KDO1 222214Z 32022G28KT 00/M09 A3002 RMK A01 T00021088  RH  051%=      5-min Rain = 0
KDO1 222215Z 32019G24KT 00/M09 A3002 RMK A01 T00021088  RH  051%=      5-min Rain = 0
KDO1 222216Z 32020KT 00/M09 A3003 RMK A01 T00021087  RH  051%=      5-min Rain = 0
KDO1 222217Z 33020KT 00/M09 A3003 RMK A01 T00031087  RH  051%=      5-min Rain = 0
KDO1 222218Z 33022G28KT 00/M09 A3003 RMK A01 T00021088  RH  051%=      5-min Rain = 0
KDO1 222219Z 33022KT 00/M09 A3003 RMK A01 T00021088  RH  051%=      5-min Rain = 0
KDO1 222220Z 33019G25KT 00/M09 A3003 RMK A01 T00021089  RH  051%=      5-min Rain = 0
KDO1 222221Z 34015G21KT 00/M09 A3003 RMK A01 T00011088  RH  051%=      5-min Rain = 0
KDO1 222222Z 33023G29KT 00/M09 A3003 RMK A01 T00011088  RH  051%=      5-min Rain = 0
KDO1 222223Z 33019G25KT 00/M09 A3003 RMK A01 T00011089  RH  051%=      5-min Rain = 0
KDO1 222224Z 33021G29KT 00/M09 A3003 RMK A01 T00011089  RH  051%=      5-min Rain = 0
KDO1 222225Z 33020G27KT 00/M09 A3003 RMK A01 T00011089  RH  051%=      5-min Rain = 0
KDO1 222226Z 34024KT 00/M09 A3003 RMK A01 T00021090  RH  050%=      5-min Rain = 0
KDO1 222227Z 33020G25KT 00/09 A3003 RMK A01 T00000-92  RH  050%=      5-min Rain = 0
KDO1 222228Z 33020G26KT 00/09 A3003 RMK A01 T00000-91  RH  050%=      5-min Rain = 0
KDO1 222229Z 33019G26KT 00/09 A3004 RMK A01 T00000-91  RH  050%=      5-min Rain = 0
KDO1 222230Z 33021G26KT 00/M09 A3004 RMK A01 T00011092  RH  050%=      5-min Rain = 0
KDO1 222231Z 33019G28KT 00/M09 A3004 RMK A01 T00011092  RH  050%=      5-min Rain = 0
KDO1 222232Z 33021G26KT 00/M09 A3004 RMK A01 T00011093  RH  049%=      5-min Rain = 0
KDO1 222233Z 33023KT 00/M09 A3004 RMK A01 T00011093  RH  049%=      5-min Rain = 0
KDO1 222234Z 34026KT 00/09 A3004 RMK A01 T00000-94  RH  049%=      5-min Rain = 0
KDO1 222235Z 33022KT M00/M10 A3004 RMK A01 T10011096  RH  049%=      5-min Rain = 0
KDO1 222236Z 32018G26KT M00/M10 A3004 RMK A01 T10011095  RH  049%=      5-min Rain = 0
KDO1 222237Z 33017KT M00/M09 A3004 RMK A01 T10011094  RH  049%=      5-min Rain = 0
KDO1 222238Z 32021G27KT 00/10 A3004 RMK A01 T00-00-95  RH  049%=      5-min Rain = 0
KDO1 222239Z 32021G27KT 00/10 A3004 RMK A01 T00-00-96  RH  049%=      5-min Rain = 0
KDO1 222240Z 32024KT M00/M10 A3004 RMK A01 T10011097  RH  049%=      5-min Rain = 0
KDO1 222241Z 33019G25KT M00/M10 A3004 RMK A01 T10021096  RH  049%=      5-min Rain = 0
KDO1 222242Z 33020G26KT M00/M10 A3004 RMK A01 T10011095  RH  049%=      5-min Rain = 0
KDO1 222243Z 32021KT M00/M10 A3004 RMK A01 T10011096  RH  049%=      5-min Rain = 0
KDO1 222244Z 32027KT M00/M10 A3004 RMK A01 T10011097  RH  048%=      5-min Rain = 0
KDO1 222245Z 33020G26KT M00/M10 A3004 RMK A01 T10031099  RH  048%=      5-min Rain = 0
KDO1 222246Z 34025G30KT M00/M10 A3004 RMK A01 T10031099  RH  048%=      5-min Rain = 0
KDO1 222247Z 34022KT M00/M10 A3005 RMK A01 T10031100  RH  048%=      5-min Rain = 0
KDO1 222248Z 33023G28KT M00/M10 A3005 RMK A01 T10031099  RH  048%=      5-min Rain = 0
KDO1 222249Z 33020G25KT M00/M10 A3005 RMK A01 T10031099  RH  048%=      5-min Rain = 0
KDO1 222250Z 33020G27KT M00/M10 A3005 RMK A01 T10031098  RH  049%=      5-min Rain = 0
KDO1 222251Z 32023G29KT M00/M10 A3005 RMK A01 T10031098  RH  048%=      5-min Rain = 0
KDO1 222252Z 32024KT M00/M10 A3005 RMK A01 T10031098  RH  049%=      5-min Rain = 0
KDO1 222253Z 32021KT M00/M10 A3005 RMK A01 T10041099  RH  049%=      5-min Rain = 0
KDO1 222254Z 32021G26KT M00/M10 A3005 RMK A01 T10041099  RH  049%=      5-min Rain = 0
KDO1 222255Z 32027G32KT M00/M10 A3005 RMK A01 T10041099  RH  049%=      5-min Rain = 0
KDO1 222256Z 32024G30KT M00/M10 A3005 RMK A01 T10041100  RH  048%=      5-min Rain = 0
KDO1 222257Z 32023G31KT M00/M10 A3005 RMK A01 T10041100  RH  048%=      5-min Rain = 0
KDO1 222258Z 32026KT M00/M10 A3005 RMK A01 T10041101  RH  048%=      5-min Rain = 0
KDO1 222259Z 33020G26KT M00/M10 A3005 RMK A01 T10041101  RH  048%=      5-min Rain = 0
KDO1 222300Z 32018KT M00/M10 A3005 RMK A01 T10041100  RH  048%=      5-min Rain = 0
KDO1 222301Z 32020G27KT M00/M10 A3006 RMK A01 T10041099  RH  049%=      5-min Rain = 0
KDO1 222302Z 32022KT M00/M10 A3005 RMK A01 T10041099  RH  049%=      5-min Rain = 0
KDO1 222303Z 33018G25KT M01/M10 A3006 RMK A01 T10051099  RH  049%=      5-min Rain = 0
KDO1 222304Z 33021G26KT M01/M10 A3006 RMK A01 T10051099  RH  049%=      5-min Rain = 0
KDO1 222305Z 32019KT M01/M10 A3006 RMK A01 T10051100  RH  049%=      5-min Rain = 0
KDO1 222306Z 32020G26KT M01/M10 A3006 RMK A01 T10051100  RH  049%=      5-min Rain = 0
KDO1 222307Z 33022G28KT M01/M10 A3006 RMK A01 T10051100  RH  048%=      5-min Rain = 0
KDO1 222308Z 33021G26KT M01/M10 A3006 RMK A01 T10061102  RH  048%=      5-min Rain = 0
KDO1 222309Z 33019G24KT M01/M10 A3006 RMK A01 T10071102  RH  049%=      5-min Rain = 0
KDO1 222310Z 33022G31KT M01/M10 A3006 RMK A01 T10071102  RH  049%=      5-min Rain = 0
KDO1 222311Z 33025KT M01/M10 A3006 RMK A01 T10071102  RH  049%=      5-min Rain = 0
KDO1 222312Z 34021G29KT M01/M10 A3006 RMK A01 T10081104  RH  048%=      5-min Rain = 0
KDO1 222313Z 33017G24KT M01/M10 A3007 RMK A01 T10081103  RH  049%=      5-min Rain = 0
KDO1 222314Z 33020G27KT M01/M10 A3006 RMK A01 T10091103  RH  049%=      5-min Rain = 0
KDO1 222315Z 33025G33KT M01/M10 A3006 RMK A01 T10091104  RH  048%=      5-min Rain = 0
KDO1 222316Z 33024G31KT M01/M11 A3006 RMK A01 T10101105  RH  048%=      5-min Rain = 0
KDO1 222317Z 33024G30KT M01/M11 A3006 RMK A01 T10101105  RH  049%=      5-min Rain = 0
KDO1 222318Z 33022KT M01/M11 A3006 RMK A01 T10111105  RH  049%=      5-min Rain = 0
KDO1 222319Z 33021KT M01/M11 A3007 RMK A01 T10121105  RH  049%=      5-min Rain = 0
KDO1 222320Z 33022KT M01/M10 A3007 RMK A01 T10111104  RH  049%=      5-min Rain = 0
KDO1 222321Z 33016G22KT M01/M10 A3007 RMK A01 T10111104  RH  049%=      5-min Rain = 0
KDO1 222322Z 34017G25KT M01/M10 A3007 RMK A01 T10111103  RH  050%=      5-min Rain = 0
KDO1 222323Z 34021KT M01/M10 A3007 RMK A01 T10111104  RH  050%=      5-min Rain = 0
KDO1 222324Z 34020G26KT M01/M11 A3007 RMK A01 T10121105  RH  049%=      5-min Rain = 0
KDO1 222325Z 34019G26KT M01/M11 A3007 RMK A01 T10121105  RH  049%=      5-min Rain = 0
KDO1 222326Z 34016G21KT M01/M11 A3007 RMK A01 T10121105  RH  049%=      5-min Rain = 0
KDO1 222327Z 34019G25KT M01/M10 A3007 RMK A01 T10121104  RH  049%=      5-min Rain = 0
KDO1 222328Z 34020G26KT M01/M11 A3007 RMK A01 T10121105  RH  049%=      5-min Rain = 0
KDO1 222329Z 34023G28KT M01/M11 A3006 RMK A01 T10131106  RH  049%=      5-min Rain = 0
KDO1 222330Z 34017G22KT M01/M11 A3006 RMK A01 T10131106  RH  049%=      5-min Rain = 0
KDO1 222331Z 33020G25KT M01/M11 A3006 RMK A01 T10131106  RH  049%=      5-min Rain = 0
KDO1 222332Z 34019G24KT M01/M11 A3006 RMK A01 T10131107  RH  049%=      5-min Rain = 0
KDO1 222333Z 33022G27KT M01/M11 A3006 RMK A01 T10141107  RH  049%=      5-min Rain = 0
KDO1 222334Z 34017G24KT M01/M11 A3006 RMK A01 T10141107  RH  049%=      5-min Rain = 0
KDO1 222335Z 33018G24KT M01/M11 A3006 RMK A01 T10141107  RH  049%=      5-min Rain = 0
KDO1 222336Z 33024G30KT M01/M11 A3006 RMK A01 T10141106  RH  049%=      5-min Rain = 0
KDO1 222337Z 33023G28KT M01/M11 A3006 RMK A01 T10141107  RH  049%=      5-min Rain = 0
KDO1 222338Z 33021G28KT M01/M11 A3006 RMK A01 T10141107  RH  049%=      5-min Rain = 0
KDO1 222339Z 33021G26KT M01/M11 A3006 RMK A01 T10141107  RH  049%=      5-min Rain = 0
KDO1 222340Z 33020G26KT M01/M11 A3006 RMK A01 T10141107  RH  049%=      5-min Rain = 0
KDO1 222341Z 33018G23KT M01/M11 A3006 RMK A01 T10141106  RH  049%=      5-min Rain = 0
KDO1 222342Z 33016KT M01/M11 A3007 RMK A01 T10141106  RH  050%=      5-min Rain = 0
KDO1 222343Z 34016KT M02/M11 A3007 RMK A01 T10151106  RH  050%=      5-min Rain = 0
KDO1 222344Z 34014KT M02/M11 A3007 RMK A01 T10151106  RH  050%=      5-min Rain = 0
KDO1 222345Z 33018G24KT M02/M11 A3007 RMK A01 T10151106  RH  050%=      5-min Rain = 0
KDO1 222346Z 34018G26KT M02/M11 A3007 RMK A01 T10151106  RH  050%=      5-min Rain = 0
KDO1 222347Z 34019KT M02/M11 A3007 RMK A01 T10161106  RH  050%=      5-min Rain = 0
KDO1 222348Z 34014G22KT M02/M11 A3007 RMK A01 T10161106  RH  050%=      5-min Rain = 0
KDO1 222349Z 34017KT M02/M11 A3007 RMK A01 T10161106  RH  050%=      5-min Rain = 0
KDO1 222350Z 34020G27KT M02/M11 A3007 RMK A01 T10161106  RH  050%=      5-min Rain = 0
KDO1 222351Z 33018G26KT M02/M11 A3007 RMK A01 T10161106  RH  051%=      5-min Rain = 0
KDO1 222352Z 33020G26KT M02/M11 A3007 RMK A01 T10161106  RH  051%=      5-min Rain = 0
KDO1 222353Z 34019G26KT M02/M11 A3008 RMK A01 T10171106  RH  051%=      5-min Rain = 0
KDO1 222354Z 34021KT M02/M11 A3008 RMK A01 T10171105  RH  051%=      5-min Rain = 0
KDO1 222355Z 33015KT M02/M11 A3008 RMK A01 T10171106  RH  051%=      5-min Rain = 0
KDO1 222356Z 33017KT M02/M11 A3008 RMK A01 T10171106  RH  051%=      5-min Rain = 0
KDO1 222357Z 33017G23KT M02/M11 A3008 RMK A01 T10181105  RH  051%=      5-min Rain = 0
KDO1 222358Z 33021G27KT M02/M11 A3008 RMK A01 T10181105  RH  051%=      5-min Rain = 0
KDO1 222359Z 34017KT M02/M11 A3008 RMK A01 T10181105  RH  051%=      5-min Rain = 0
KDO1 230000Z 34015KT M02/M11 A3008 RMK A01 T10181105  RH  052%=      5-min Rain = 0
KDO1 230001Z 33013KT M02/M11 A3008 RMK A01 T10181105  RH  052%=      5-min Rain = 0
KDO1 230002Z 33014KT M02/M10 A3008 RMK A01 T10191104  RH  052%=      5-min Rain = 0
KDO1 230003Z 34017KT M02/M11 A3008 RMK A01 T10191105  RH  052%=      5-min Rain = 0
KDO1 230004Z 34014G22KT M02/M10 A3008 RMK A01 T10191104  RH  052%=      5-min Rain = 0
KDO1 230005Z 33016KT M02/M10 A3008 RMK A01 T10191104  RH  052%=      5-min Rain = 0
KDO1 230006Z 33014KT M02/M10 A3008 RMK A01 T10191104  RH  052%=      5-min Rain = 0
KDO1 230007Z 33017G22KT M02/M10 A3008 RMK A01 T10191104  RH  052%=      5-min Rain = 0
KDO1 230008Z 33012KT M02/M10 A3008 RMK A01 T10191104  RH  052%=      5-min Rain = 0
KDO1 230009Z 34014G21KT M02/M10 A3008 RMK A01 T10191104  RH  052%=      5-min Rain = 0
KDO1 230010Z 34016G21KT M02/M10 A3008 RMK A01 T10191104  RH  052%=      5-min Rain = 0
KDO1 230011Z 33016KT M02/M10 A3009 RMK A01 T10191104  RH  052%=      5-min Rain = 0
KDO1 230012Z 34017G22KT M02/M10 A3009 RMK A01 T10191104  RH  052%=      5-min Rain = 0
KDO1 230013Z 34020G25KT M02/M11 A3009 RMK A01 T10191105  RH  052%=      5-min Rain = 0
KDO1 230014Z 33019G27KT M02/M11 A3009 RMK A01 T10191105  RH  052%=      5-min Rain = 0
KDO1 230015Z 33018G28KT M02/M11 A3009 RMK A01 T10191106  RH  051%=      5-min Rain = 0
KDO1 230016Z 32022G28KT M02/M11 A3009 RMK A01 T10191106  RH  051%=      5-min Rain = 0
KDO1 230017Z 33020G28KT M02/M11 A3009 RMK A01 T10191107  RH  051%=      5-min Rain = 0
KDO1 230018Z 33017G22KT M02/M11 A3009 RMK A01 T10191107  RH  051%=      5-min Rain = 0
KDO1 230019Z 33015KT M02/M11 A3009 RMK A01 T10191107  RH  051%=      5-min Rain = 0
KDO1 230020Z 34012KT M02/M11 A3009 RMK A01 T10201107  RH  051%=      5-min Rain = 0
KDO1 230021Z 33015KT M02/M11 A301 RMK A01 T10201107  RH  052%=      5-min Rain = 0
KDO1 230022Z 34017KT M02/M11 A301 RMK A01 T10211107  RH  052%=      5-min Rain = 0
KDO1 230023Z 34016G21KT M02/M11 A301 RMK A01 T10211107  RH  052%=      5-min Rain = 0
KDO1 230024Z 34017KT M02/M11 A301 RMK A01 T10211107  RH  052%=      5-min Rain = 0
KDO1 230025Z 33018KT M02/M11 A301 RMK A01 T10211107  RH  052%=      5-min Rain = 0
KDO1 230026Z 34017G24KT M02/M11 A301 RMK A01 T10211108  RH  051%=      5-min Rain = 0
KDO1 230027Z 33017G23KT M02/M11 A301 RMK A01 T10211108  RH  051%=      5-min Rain = 0
KDO1 230028Z 33016KT M02/M11 A301 RMK A01 T10211109  RH  051%=      5-min Rain = 0
KDO1 230029Z 33019G27KT M02/M11 A301 RMK A01 T10211109  RH  051%=      5-min Rain = 0
KDO1 230030Z 34019G27KT M02/M11 A301 RMK A01 T10221109  RH  051%=      5-min Rain = 0
KDO1 230031Z 33016G21KT M02/M11 A301 RMK A01 T10211109  RH  051%=      5-min Rain = 0
KDO1 230032Z 34019G24KT M02/M11 A301 RMK A01 T10221109  RH  051%=      5-min Rain = 0
KDO1 230033Z 33018G24KT M02/M11 A301 RMK A01 T10221110  RH  051%=      5-min Rain = 0
KDO1 230034Z 34016KT M02/M11 A3011 RMK A01 T10221110  RH  051%=      5-min Rain = 0
KDO1 230035Z 33021KT M02/M11 A301 RMK A01 T10221110  RH  051%=      5-min Rain = 0
KDO1 230036Z 34021G28KT M02/M11 A301 RMK A01 T10221110  RH  051%=      5-min Rain = 0
KDO1 230037Z 33021G27KT M02/M11 A301 RMK A01 T10231111  RH  051%=      5-min Rain = 0
KDO1 230038Z 34022G29KT M02/M11 A301 RMK A01 T10231111  RH  051%=      5-min Rain = 0
KDO1 230039Z 33019KT M02/M11 A301 RMK A01 T10231111  RH  051%=      5-min Rain = 0
KDO1 230040Z 33019KT M02/M11 A3011 RMK A01 T10231110  RH  051%=      5-min Rain = 0
KDO1 230041Z 33017G22KT M02/M11 A301 RMK A01 T10231111  RH  051%=      5-min Rain = 0
KDO1 230042Z 34015G23KT M02/M11 A3011 RMK A01 T10241110  RH  051%=      5-min Rain = 0
KDO1 230043Z 33018G23KT M03/M11 A3011 RMK A01 T10251111  RH  052%=      5-min Rain = 0
KDO1 230044Z 34019KT M02/M11 A3011 RMK A01 T10241110  RH  052%=      5-min Rain = 0
KDO1 230045Z 33014G19KT M02/M11 A3011 RMK A01 T10241111  RH  052%=      5-min Rain = 0
KDO1 230046Z 33015G20KT M02/M11 A3011 RMK A01 T10241110  RH  052%=      5-min Rain = 0
KDO1 230047Z 33015KT M03/M11 A3011 RMK A01 T10251111  RH  052%=      5-min Rain = 0
KDO1 230048Z 34017G26KT M03/M11 A3011 RMK A01 T10251111  RH  052%=      5-min Rain = 0
KDO1 230049Z 33020KT M03/M11 A3011 RMK A01 T10251111  RH  052%=      5-min Rain = 0
KDO1 230050Z 33018G24KT M03/M11 A3011 RMK A01 T10251111  RH  052%=      5-min Rain = 0
KDO1 230051Z 33017KT M03/M11 A3011 RMK A01 T10251111  RH  052%=      5-min Rain = 0
KDO1 230052Z 33019G25KT M03/M11 A3011 RMK A01 T10251111  RH  052%=      5-min Rain = 0
KDO1 230053Z 33022KT M03/M11 A3011 RMK A01 T10251111  RH  052%=      5-min Rain = 0
KDO1 230054Z 34021G27KT M03/M11 A3011 RMK A01 T10251112  RH  051%=      5-min Rain = 0
KDO1 230055Z 33017KT M03/M11 A3011 RMK A01 T10251112  RH  051%=      5-min Rain = 0
KDO1 230056Z 34017KT M03/M11 A3012 RMK A01 T10261112  RH  052%=      5-min Rain = 0
KDO1 230057Z 33017G24KT M03/M11 A3012 RMK A01 T10261112  RH  052%=      5-min Rain = 0
KDO1 230058Z 34015G21KT M03/M11 A3012 RMK A01 T10261112  RH  052%=      5-min Rain = 0
KDO1 230059Z 33014KT M03/M11 A3012 RMK A01 T10271112  RH  052%=      5-min Rain = 0
KDO1 230100Z 33017G25KT M03/M11 A3012 RMK A01 T10271111  RH  052%=      5-min Rain = 0
KDO1 230101Z 34022G27KT M03/M11 A3012 RMK A01 T10271112  RH  052%=      5-min Rain = 0
KDO1 230102Z 33020G25KT M03/M11 A3012 RMK A01 T10271112  RH  052%=      5-min Rain = 0
KDO1 230103Z 33019KT M03/M11 A3012 RMK A01 T10271112  RH  052%=      5-min Rain = 0
KDO1 230104Z 34019G24KT M03/M11 A3012 RMK A01 T10271112  RH  052%=      5-min Rain = 0
KDO1 230105Z 34019KT M03/M11 A3012 RMK A01 T10271112  RH  052%=      5-min Rain = 0
KDO1 230106Z 33020KT M03/M11 A3012 RMK A01 T10281112  RH  052%=      5-min Rain = 0
KDO1 230107Z 33021G26KT M03/M11 A3012 RMK A01 T10281112  RH  052%=      5-min Rain = 0
KDO1 230108Z 33016G22KT M03/M11 A3012 RMK A01 T10271112  RH  052%=      5-min Rain = 0
KDO1 230109Z 34016G22KT M03/M11 A3012 RMK A01 T10281112  RH  052%=      5-min Rain = 0
KDO1 230110Z 33019G24KT M03/M11 A3012 RMK A01 T10281112  RH  052%=      5-min Rain = 0
KDO1 230111Z 33020G25KT M03/M11 A3012 RMK A01 T10281112  RH  052%=      5-min Rain = 0
KDO1 230112Z 33018G24KT M03/M11 A3012 RMK A01 T10281112  RH  052%=      5-min Rain = 0
KDO1 230113Z 33019KT M03/M11 A3012 RMK A01 T10281112  RH  053%=      5-min Rain = 0
KDO1 230114Z 34022KT M03/M11 A3012 RMK A01 T10291112  RH  053%=      5-min Rain = 0
KDO1 230115Z 33019KT M03/M11 A3012 RMK A01 T10291112  RH  053%=      5-min Rain = 0
KDO1 230116Z 33016KT M03/M11 A3012 RMK A01 T10291112  RH  053%=      5-min Rain = 0
KDO1 230117Z 34026KT M03/M11 A3012 RMK A01 T10291112  RH  053%=      5-min Rain = 0
KDO1 230118Z 33023KT M03/M11 A3012 RMK A01 T10291112  RH  053%=      5-min Rain = 0
KDO1 230119Z 33023G28KT M03/M11 A3012 RMK A01 T10291112  RH  053%=      5-min Rain = 0
KDO1 230120Z 33020G28KT M03/M11 A3013 RMK A01 T10291112  RH  053%=      5-min Rain = 0
KDO1 230121Z 34020G25KT M03/M11 A3013 RMK A01 T10291112  RH  053%=      5-min Rain = 0
KDO1 230122Z 34019G24KT M03/M11 A3013 RMK A01 T10301112  RH  053%=      5-min Rain = 0
KDO1 230123Z 34016G22KT M03/M11 A3013 RMK A01 T10301111  RH  054%=      5-min Rain = 0
KDO1 230124Z 34020G26KT M03/M11 A3013 RMK A01 T10301111  RH  054%=      5-min Rain = 0
KDO1 230125Z 34023KT M03/M11 A3013 RMK A01 T10311111  RH  054%=      5-min Rain = 0
KDO1 230126Z 34022G27KT M03/M11 A3013 RMK A01 T10311111  RH  054%=      5-min Rain = 0
KDO1 230127Z 34022G28KT M03/M11 A3013 RMK A01 T10311111  RH  054%=      5-min Rain = 0
KDO1 230128Z 34019G25KT M03/M11 A3013 RMK A01 T10311111  RH  054%=      5-min Rain = 0
KDO1 230129Z 34018G25KT M03/M11 A3013 RMK A01 T10311110  RH  054%=      5-min Rain = 0
KDO1 230130Z 34017KT M03/M11 A3013 RMK A01 T10311110  RH  055%=      5-min Rain = 0
KDO1 230131Z 34019G24KT M03/M11 A3013 RMK A01 T10321110  RH  055%=      5-min Rain = 0
KDO1 230132Z 34016KT M03/M11 A3013 RMK A01 T10321110  RH  055%=      5-min Rain = 0
KDO1 230133Z 33013KT M03/M11 A3013 RMK A01 T10321110  RH  055%=      5-min Rain = 0
KDO1 230134Z 34014KT M03/M11 A3013 RMK A01 T10331110  RH  055%=      5-min Rain = 0
KDO1 230135Z 34016KT M03/M11 A3013 RMK A01 T10331110  RH  056%=      5-min Rain = 0
KDO1 230136Z 34018KT M03/M11 A3013 RMK A01 T10331110  RH  056%=      5-min Rain = 0
KDO1 230137Z 33015G22KT M03/M11 A3013 RMK A01 T10341110  RH  056%=      5-min Rain = 0
KDO1 230138Z 34015KT M03/M11 A3013 RMK A01 T10331110  RH  056%=      5-min Rain = 0
KDO1 230139Z 33013G18KT M03/M11 A3013 RMK A01 T10341109  RH  056%=      5-min Rain = 0
KDO1 230140Z 33013G19KT M03/M11 A3013 RMK A01 T10341110  RH  056%=      5-min Rain = 0
KDO1 230141Z 33017G25KT M03/M11 A3013 RMK A01 T10341110  RH  056%=      5-min Rain = 0
KDO1 230142Z 33017KT M03/M11 A3013 RMK A01 T10341110  RH  056%=      5-min Rain = 0
KDO1 230143Z 33012KT M03/M11 A3013 RMK A01 T10341110  RH  056%=      5-min Rain = 0
KDO1 230144Z 32012G19KT M03/M11 A3013 RMK A01 T10341109  RH  056%=      5-min Rain = 0
KDO1 230145Z 33014G21KT M04/M11 A3013 RMK A01 T10351109  RH  056%=      5-min Rain = 0
KDO1 230146Z 33017G25KT M04/M11 A3013 RMK A01 T10351109  RH  056%=      5-min Rain = 0
KDO1 230147Z 33018G24KT M04/M11 A3013 RMK A01 T10351109  RH  056%=      5-min Rain = 0
KDO1 230148Z 33015KT M03/M11 A3013 RMK A01 T10341109  RH  056%=      5-min Rain = 0
KDO1 230149Z 33015G21KT M03/M11 A3013 RMK A01 T10341109  RH  056%=      5-min Rain = 0
KDO1 230150Z 33015G23KT M04/M11 A3013 RMK A01 T10351109  RH  057%=      5-min Rain = 0
KDO1 230151Z 33015G21KT M04/M11 A3013 RMK A01 T10351108  RH  057%=      5-min Rain = 0
KDO1 230152Z 33017G22KT M04/M11 A3013 RMK A01 T10351108  RH  057%=      5-min Rain = 0
KDO1 230153Z 33021G26KT M04/M11 A3013 RMK A01 T10351108  RH  057%=      5-min Rain = 0
KDO1 230154Z 33019G25KT M04/M11 A3013 RMK A01 T10351109  RH  057%=      5-min Rain = 0
KDO1 230155Z 33016G23KT M04/M11 A3013 RMK A01 T10351108  RH  057%=      5-min Rain = 0
KDO1 230201Z 34019KT M04/M11 A3013 RMK A01 T10361107  RH  058%=      5-min Rain = 0
KDO1 230202Z 33013KT M04/M11 A3013 RMK A01 T10361107  RH  058%=      5-min Rain = 0
KDO1 230203Z 34015KT M04/M11 A3013 RMK A01 T10361107  RH  058%=      5-min Rain = 0
KDO1 230204Z 34014G19KT M04/M11 A3014 RMK A01 T10361106  RH  058%=      5-min Rain = 0
KDO1 230205Z 33016G21KT M04/M11 A3013 RMK A01 T10371107  RH  058%=      5-min Rain = 0
KDO1 230206Z 33017KT M04/M11 A3013 RMK A01 T10371106  RH  058%=      5-min Rain = 0
KDO1 230207Z 34020KT M04/M11 A3013 RMK A01 T10371106  RH  058%=      5-min Rain = 0
KDO1 230208Z 34019KT M04/M11 A3013 RMK A01 T10371106  RH  058%=      5-min Rain = 0
KDO1 230209Z 33020KT M04/M11 A3013 RMK A01 T10361106  RH  058%=      5-min Rain = 0
KDO1 230210Z 34017G23KT M04/M11 A3013 RMK A01 T10371106  RH  059%=      5-min Rain = 0
KDO1 230211Z 33014G22KT M04/M11 A3013 RMK A01 T10371106  RH  059%=      5-min Rain = 0
KDO1 230212Z 33016G21KT M04/M11 A3013 RMK A01 T10371106  RH  059%=      5-min Rain = 0
KDO1 230213Z 33016G21KT M04/M11 A3013 RMK A01 T10371105  RH  059%=      5-min Rain = 0
KDO1 230214Z 34016KT M04/M11 A3013 RMK A01 T10381105  RH  059%=      5-min Rain = 0
KDO1 230215Z 34015G21KT M04/M11 A3013 RMK A01 T10381105  RH  059%=      5-min Rain = 0
KDO1 230216Z 34016KT M04/M11 A3013 RMK A01 T10381105  RH  060%=      5-min Rain = 0
KDO1 230217Z 34018G23KT M04/M11 A3013 RMK A01 T10381105  RH  060%=      5-min Rain = 0
KDO1 230218Z 33019KT M04/M11 A3013 RMK A01 T10371105  RH  060%=      5-min Rain = 0
KDO1 230219Z 34014G19KT M04/M11 A3013 RMK A01 T10381105  RH  060%=      5-min Rain = 0
KDO1 230220Z 34017G24KT M04/M11 A3013 RMK A01 T10381105  RH  060%=      5-min Rain = 0
KDO1 230221Z 34019KT M04/M11 A3013 RMK A01 T10381105  RH  060%=      5-min Rain = 0
KDO1 230222Z 34019G24KT M04/M11 A3013 RMK A01 T10381105  RH  060%=      5-min Rain = 0
KDO1 230223Z 34016KT M04/M11 A3013 RMK A01 T10381105  RH  060%=      5-min Rain = 0
KDO1 230224Z 33017KT M04/M10 A3013 RMK A01 T10391104  RH  060%=      5-min Rain = 0
KDO1 230225Z 34015G22KT M04/M10 A3013 RMK A01 T10391104  RH  060%=      5-min Rain = 0
KDO1 230226Z 34015G20KT M04/M10 A3013 RMK A01 T10391104  RH  060%=      5-min Rain = 0
KDO1 230227Z 34018G23KT M04/M10 A3013 RMK A01 T10391104  RH  061%=      5-min Rain = 0
KDO1 230228Z 33017KT M04/M10 A3013 RMK A01 T10391104  RH  061%=      5-min Rain = 0
KDO1 230229Z 34016G22KT M04/M10 A3013 RMK A01 T10391104  RH  061%=      5-min Rain = 0
KDO1 230230Z 33016KT M04/M10 A3013 RMK A01 T10391104  RH  061%=      5-min Rain = 0
KDO1 230231Z 33014G19KT M04/M10 A3013 RMK A01 T10391104  RH  061%=      5-min Rain = 0
KDO1 230232Z 33014G21KT M04/M10 A3013 RMK A01 T10401104  RH  061%=      5-min Rain = 0
KDO1 230233Z 33016KT M04/M10 A3013 RMK A01 T10401104  RH  061%=      5-min Rain = 0
KDO1 230234Z 33016KT M04/M10 A3013 RMK A01 T10401103  RH  061%=      5-min Rain = 0
KDO1 230235Z 33015G21KT M04/M10 A3013 RMK A01 T10401103  RH  061%=      5-min Rain = 0
KDO1 230236Z 33015G22KT M04/M10 A3013 RMK A01 T10401103  RH  062%=      5-min Rain = 0
KDO1 230237Z 33015G20KT M04/M10 A3013 RMK A01 T10401103  RH  062%=      5-min Rain = 0
KDO1 230238Z 33018G24KT M04/M10 A3012 RMK A01 T10401103  RH  062%=      5-min Rain = 0
KDO1 230239Z 33016KT M04/M10 A3012 RMK A01 T10401103  RH  062%=      5-min Rain = 0
KDO1 230240Z 34013G18KT M04/M10 A3012 RMK A01 T10401103  RH  062%=      5-min Rain = 0
KDO1 230241Z 33012KT M04/M10 A3012 RMK A01 T10401103  RH  062%=      5-min Rain = 0
KDO1 230242Z 33016G24KT M04/M10 A3012 RMK A01 T10411103  RH  062%=      5-min Rain = 0
KDO1 230243Z 33013KT M04/M10 A3012 RMK A01 T10411103  RH  062%=      5-min Rain = 0
KDO1 230244Z 33014G20KT M04/M10 A3012 RMK A01 T10411102  RH  062%=      5-min Rain = 0
KDO1 230245Z 34014G19KT M04/M10 A3013 RMK A01 T10411102  RH  062%=      5-min Rain = 0
KDO1 230246Z 34014G21KT M04/M10 A3013 RMK A01 T10411102  RH  063%=      5-min Rain = 0
KDO1 230247Z 33020G25KT M04/M10 A3013 RMK A01 T10411102  RH  063%=      5-min Rain = 0
KDO1 230248Z 33014KT M04/M10 A3013 RMK A01 T10401101  RH  063%=      5-min Rain = 0
KDO1 230249Z 33018KT M04/M10 A3013 RMK A01 T10401101  RH  062%=      5-min Rain = 0
KDO1 230250Z 33015G20KT M04/M10 A3013 RMK A01 T10401102  RH  062%=      5-min Rain = 0
KDO1 230251Z 33013G18KT M04/M10 A3013 RMK A01 T10401102  RH  062%=      5-min Rain = 0
KDO1 230252Z 33012KT M04/M10 A3013 RMK A01 T10401101  RH  063%=      5-min Rain = 0
KDO1 230253Z 33012G17KT M04/M10 A3013 RMK A01 T10411101  RH  063%=      5-min Rain = 0
KDO1 230254Z 34013G18KT M04/M10 A3013 RMK A01 T10411101  RH  063%=      5-min Rain = 0
KDO1 230255Z 33017G22KT M04/M10 A3013 RMK A01 T10411101  RH  063%=      5-min Rain = 0
KDO1 230256Z 34016KT M04/M10 A3013 RMK A01 T10411101  RH  063%=      5-min Rain = 0
KDO1 230257Z 34017KT M04/M10 A3013 RMK A01 T10411101  RH  063%=      5-min Rain = 0
KDO1 230258Z 32015G20KT M04/M10 A3013 RMK A01 T10411101  RH  063%=      5-min Rain = 0
KDO1 230259Z 33016KT M04/M10 A3014 RMK A01 T10411101  RH  063%=      5-min Rain = 0
KDO1 230300Z 33013G19KT M04/M10 A3014 RMK A01 T10411100  RH  063%=      5-min Rain = 0
KDO1 230301Z 33014G19KT M04/M10 A3014 RMK A01 T10411100  RH  063%=      5-min Rain = 0
KDO1 230302Z 34017KT M04/M10 A3014 RMK A01 T10411100  RH  063%=      5-min Rain = 0
KDO1 230303Z 34016KT M04/M10 A3014 RMK A01 T10411100  RH  063%=      5-min Rain = 0
KDO1 230304Z 33018KT M04/M10 A3014 RMK A01 T10411100  RH  063%=      5-min Rain = 0
KDO1 230305Z 33017KT M04/M10 A3014 RMK A01 T10411100  RH  063%=      5-min Rain = 0
KDO1 230306Z 33015KT M04/M10 A3014 RMK A01 T10401100  RH  063%=      5-min Rain = 0
KDO1 230307Z 33012G17KT M04/M10 A3014 RMK A01 T10401100  RH  063%=      5-min Rain = 0
KDO1 230308Z 33012G17KT M04/M10 A3014 RMK A01 T10411100  RH  064%=      5-min Rain = 0
KDO1 230309Z 33014G19KT M04/M10 A3014 RMK A01 T10421100  RH  064%=      5-min Rain = 0
KDO1 230310Z 33011KT M04/M10 A3014 RMK A01 T10421099  RH  064%=      5-min Rain = 0
KDO1 230311Z 33010KT M04/M10 A3014 RMK A01 T10411099  RH  064%=      5-min Rain = 0
KDO1 230312Z 33016KT M04/M10 A3014 RMK A01 T10421099  RH  064%=      5-min Rain = 0
KDO1 230313Z 34012KT M04/M10 A3014 RMK A01 T10421099  RH  064%=      5-min Rain = 0
KDO1 230314Z 34014KT M04/M10 A3014 RMK A01 T10421099  RH  065%=      5-min Rain = 0
KDO1 230315Z 33011KT M04/M10 A3014 RMK A01 T10421099  RH  064%=      5-min Rain = 0
KDO1 230316Z 33009KT M04/M10 A3014 RMK A01 T10421099  RH  065%=      5-min Rain = 0
KDO1 230317Z 33012G17KT M04/M10 A3014 RMK A01 T10421099  RH  065%=      5-min Rain = 0
KDO1 230318Z 33011KT M04/M10 A3014 RMK A01 T10431099  RH  065%=      5-min Rain = 0
KDO1 230319Z 33011KT M04/M10 A3015 RMK A01 T10431099  RH  065%=      5-min Rain = 0
KDO1 230320Z 34013KT M04/M10 A3015 RMK A01 T10431098  RH  065%=      5-min Rain = 0
KDO1 230321Z 33010KT M04/M10 A3015 RMK A01 T10431098  RH  065%=      5-min Rain = 0
KDO1 230322Z 34010KT M04/M10 A3015 RMK A01 T10431098  RH  065%=      5-min Rain = 0
KDO1 230323Z 33015G20KT M04/M10 A3014 RMK A01 T10431098  RH  065%=      5-min Rain = 0
KDO1 230324Z 33015G21KT M04/M10 A3014 RMK A01 T10431098  RH  065%=      5-min Rain = 0
KDO1 230325Z 33017KT M04/M10 A3015 RMK A01 T10421097  RH  065%=      5-min Rain = 0
KDO1 230326Z 34017KT M04/M10 A3015 RMK A01 T10421098  RH  065%=      5-min Rain = 0
KDO1 230327Z 34014KT M04/M10 A3015 RMK A01 T10421098  RH  065%=      5-min Rain = 0
KDO1 230328Z 33012G18KT M04/M10 A3015 RMK A01 T10421098  RH  065%=      5-min Rain = 0
KDO1 230329Z 33016KT M04/M10 A3015 RMK A01 T10421098  RH  065%=      5-min Rain = 0
KDO1 230330Z 33012KT M04/M10 A3015 RMK A01 T10421098  RH  065%=      5-min Rain = 0
KDO1 230331Z 34014KT M04/M10 A3015 RMK A01 T10421097  RH  065%=      5-min Rain = 0
KDO1 230332Z 34017KT M04/M10 A3015 RMK A01 T10421097  RH  065%=      5-min Rain = 0
KDO1 230333Z 33014KT M04/M10 A3015 RMK A01 T10421097  RH  065%=      5-min Rain = 0
KDO1 230334Z 34012KT M04/M10 A3015 RMK A01 T10421098  RH  065%=      5-min Rain = 0
KDO1 230335Z 34014KT M04/M10 A3015 RMK A01 T10421097  RH  066%=      5-min Rain = 0
KDO1 230336Z 33013KT M04/M10 A3015 RMK A01 T10421097  RH  066%=      5-min Rain = 0
KDO1 230337Z 33015KT M04/M10 A3015 RMK A01 T10421096  RH  066%=      5-min Rain = 0
KDO1 230338Z 34011KT M04/M10 A3015 RMK A01 T10421097  RH  066%=      5-min Rain = 0
KDO1 230339Z 33014KT M04/M10 A3015 RMK A01 T10421097  RH  066%=      5-min Rain = 0
KDO1 230340Z 34012KT M04/M10 A3015 RMK A01 T10421096  RH  066%=      5-min Rain = 0
KDO1 230341Z 33012G17KT M04/M10 A3015 RMK A01 T10421096  RH  066%=      5-min Rain = 0
KDO1 230342Z 33009KT M04/M10 A3015 RMK A01 T10421096  RH  066%=      5-min Rain = 0
KDO1 230343Z 33014KT M04/M10 A3015 RMK A01 T10421096  RH  066%=      5-min Rain = 0
KDO1 230344Z 33011G17KT M04/M10 A3015 RMK A01 T10421096  RH  066%=      5-min Rain = 0
KDO1 230345Z 33012KT M04/M10 A3015 RMK A01 T10421096  RH  066%=      5-min Rain = 0
KDO1 230346Z 34012KT M04/M10 A3015 RMK A01 T10421096  RH  066%=      5-min Rain = 0
KDO1 230347Z 33014KT M04/M10 A3015 RMK A01 T10421095  RH  066%=      5-min Rain = 0
KDO1 230348Z 33011KT M04/M10 A3015 RMK A01 T10421095  RH  067%=      5-min Rain = 0
KDO1 230349Z 34014KT M04/M10 A3015 RMK A01 T10421095  RH  067%=      5-min Rain = 0
KDO1 230350Z 33010KT M04/M09 A3015 RMK A01 T10411094  RH  067%=      5-min Rain = 0
KDO1 230351Z 33012KT M04/M09 A3015 RMK A01 T10411094  RH  067%=      5-min Rain = 0
KDO1 230352Z 33013KT M04/M09 A3015 RMK A01 T10411094  RH  067%=      5-min Rain = 0
KDO1 230353Z 33011KT M04/M09 A3015 RMK A01 T10411094  RH  067%=      5-min Rain = 0
KDO1 230354Z 33009KT M04/M09 A3015 RMK A01 T10411094  RH  067%=      5-min Rain = 0
KDO1 230355Z 33008KT M04/M09 A3016 RMK A01 T10411094  RH  067%=      5-min Rain = 0
KDO1 230356Z 32009KT M04/M09 A3016 RMK A01 T10421094  RH  067%=      5-min Rain = 0
KDO1 230357Z 32011KT M04/M09 A3016 RMK A01 T10421094  RH  067%=      5-min Rain = 0
KDO1 230358Z 32012KT M04/M09 A3016 RMK A01 T10421094  RH  067%=      5-min Rain = 0
KDO1 230359Z 32010KT M04/M09 A3016 RMK A01 T10411093  RH  067%=      5-min Rain = 0
KDO1 230400Z 32007KT M04/M09 A3016 RMK A01 T10411093  RH  067%=      5-min Rain = 0
KDO1 230401Z 32008KT M04/M09 A3016 RMK A01 T10421093  RH  068%=      5-min Rain = 0
KDO1 230402Z 32007KT M04/M09 A3016 RMK A01 T10421093  RH  068%=      5-min Rain = 0
KDO1 230403Z 32009KT M04/M09 A3016 RMK A01 T10431093  RH  068%=      5-min Rain = 0
KDO1 230404Z 33008KT M04/M09 A3016 RMK A01 T10431093  RH  068%=      5-min Rain = 0
KDO1 230405Z 32009KT M04/M09 A3016 RMK A01 T10421093  RH  068%=      5-min Rain = 0
KDO1 230406Z 33009KT M04/M09 A3016 RMK A01 T10421092  RH  068%=      5-min Rain = 0
KDO1 230407Z 33009KT M04/M09 A3016 RMK A01 T10421092  RH  068%=      5-min Rain = 0
KDO1 230408Z 32008KT M04/M09 A3016 RMK A01 T10421092  RH  068%=      5-min Rain = 0
KDO1 230409Z 32008KT M04/M09 A3016 RMK A01 T10421092  RH  068%=      5-min Rain = 0
KDO1 230410Z 33006KT M04/M09 A3016 RMK A01 T10421092  RH  068%=      5-min Rain = 0
KDO1 230411Z 33007KT M04/M09 A3016 RMK A01 T10421092  RH  069%=      5-min Rain = 0
KDO1 230412Z 33006KT M04/M09 A3016 RMK A01 T10431092  RH  069%=      5-min Rain = 0
KDO1 230413Z 32007KT M04/M09 A3016 RMK A01 T10441092  RH  069%=      5-min Rain = 0
KDO1 230414Z 33008KT M04/M09 A3016 RMK A01 T10441092  RH  069%=      5-min Rain = 0
KDO1 230415Z 32007KT M04/M09 A3016 RMK A01 T10431092  RH  069%=      5-min Rain = 0
KDO1 230416Z 32008KT M04/M09 A3016 RMK A01 T10431091  RH  069%=      5-min Rain = 0
KDO1 230417Z 32009KT M04/M09 A3016 RMK A01 T10431091  RH  069%=      5-min Rain = 0
KDO1 230418Z 33010KT M04/M09 A3016 RMK A01 T10431090  RH  069%=      5-min Rain = 0
KDO1 230419Z 32008KT M04/M09 A3016 RMK A01 T10421090  RH  069%=      5-min Rain = 0
KDO1 230420Z 32009KT M04/M09 A3016 RMK A01 T10421090  RH  069%=      5-min Rain = 0
KDO1 230421Z 32010KT M04/M09 A3016 RMK A01 T10421090  RH  069%=      5-min Rain = 0
KDO1 230422Z 33010KT M04/M09 A3016 RMK A01 T10421090  RH  069%=      5-min Rain = 0
KDO1 230423Z 32008KT M04/M09 A3016 RMK A01 T10421090  RH  069%=      5-min Rain = 0
KDO1 230424Z 32008KT M04/M09 A3016 RMK A01 T10421090  RH  069%=      5-min Rain = 0
KDO1 230425Z 32007KT M04/M09 A3016 RMK A01 T10421089  RH  070%=      5-min Rain = 0
KDO1 230426Z 31007KT M04/M09 A3016 RMK A01 T10421089  RH  070%=      5-min Rain = 0
KDO1 230427Z 32009KT M04/M09 A3016 RMK A01 T10431089  RH  070%=      5-min Rain = 0
KDO1 230428Z 32009KT M04/M09 A3016 RMK A01 T10431089  RH  070%=      5-min Rain = 0
KDO1 230429Z 32009KT M04/M09 A3016 RMK A01 T10431089  RH  070%=      5-min Rain = 0
KDO1 230430Z 32009KT M04/M09 A3016 RMK A01 T10421088  RH  070%=      5-min Rain = 0
KDO1 230431Z 32008KT M04/M09 A3016 RMK A01 T10421088  RH  070%=      5-min Rain = 0
KDO1 230432Z 32010KT M04/M09 A3016 RMK A01 T10421088  RH  070%=      5-min Rain = 0
KDO1 230433Z 32009KT M04/M09 A3016 RMK A01 T10421088  RH  070%=      5-min Rain = 0
KDO1 230434Z 32010KT M04/M09 A3016 RMK A01 T10421088  RH  071%=      5-min Rain = 0
KDO1 230435Z 33009KT M04/M09 A3015 RMK A01 T10421088  RH  071%=      5-min Rain = 0
KDO1 230436Z 32009KT M04/M09 A3015 RMK A01 T10421087  RH  071%=      5-min Rain = 0
KDO1 230437Z 33010KT M04/M09 A3015 RMK A01 T10421087  RH  071%=      5-min Rain = 0
KDO1 230438Z 32012KT M04/M09 A3015 RMK A01 T10431087  RH  071%=      5-min Rain = 0
KDO1 230439Z 33010KT M04/M09 A3015 RMK A01 T10421086  RH  071%=      5-min Rain = 0
KDO1 230440Z 32009KT M04/M09 A3015 RMK A01 T10411086  RH  071%=      5-min Rain = 0
KDO1 230441Z 32011KT M04/M09 A3015 RMK A01 T10421086  RH  071%=      5-min Rain = 0
KDO1 230442Z 32010KT M04/M09 A3015 RMK A01 T10421087  RH  071%=      5-min Rain = 0
KDO1 230443Z 32010KT M04/M09 A3015 RMK A01 T10421086  RH  071%=      5-min Rain = 0
KDO1 230444Z 32009KT M04/M09 A3015 RMK A01 T10421086  RH  071%=      5-min Rain = 0
KDO1 230445Z 32009KT M04/M09 A3015 RMK A01 T10421086  RH  071%=      5-min Rain = 0
KDO1 230446Z 32009KT M04/M09 A3015 RMK A01 T10421086  RH  071%=      5-min Rain = 0
KDO1 230447Z 32009KT M04/M09 A3015 RMK A01 T10421086  RH  072%=      5-min Rain = 0
KDO1 230448Z 32008KT M04/M09 A3015 RMK A01 T10421086  RH  072%=      5-min Rain = 0
KDO1 230449Z 32009KT M04/M09 A3015 RMK A01 T10421086  RH  072%=      5-min Rain = 0
KDO1 230450Z 32009KT M04/M09 A3015 RMK A01 T10421086  RH  072%=      5-min Rain = 0
KDO1 230451Z 32008KT M04/M09 A3015 RMK A01 T10421085  RH  072%=      5-min Rain = 0
KDO1 230452Z 31009KT M04/M09 A3015 RMK A01 T10431086  RH  072%=      5-min Rain = 0
KDO1 230453Z 31009KT M04/M09 A3015 RMK A01 T10431086  RH  072%=      5-min Rain = 0
KDO1 230454Z 32009KT M04/M09 A3015 RMK A01 T10431086  RH  072%=      5-min Rain = 0
KDO1 230455Z 32008KT M04/M09 A3015 RMK A01 T10431086  RH  072%=      5-min Rain = 0
KDO1 230456Z 32008KT M04/M09 A3015 RMK A01 T10431086  RH  072%=      5-min Rain = 0
KDO1 230457Z 32009KT M04/M09 A3016 RMK A01 T10431085  RH  072%=      5-min Rain = 0
KDO1 230458Z 32007KT M04/M09 A3016 RMK A01 T10431085  RH  072%=      5-min Rain = 0
KDO1 230459Z 32007KT M04/M09 A3016 RMK A01 T10431085  RH  072%=      5-min Rain = 0
KDO1 230500Z 32006KT M04/M09 A3016 RMK A01 T10431085  RH  073%=      5-min Rain = 0
KDO1 230501Z 32006KT M04/M09 A3016 RMK A01 T10441086  RH  073%=      5-min Rain = 0
KDO1 230502Z 31006KT M04/M09 A3016 RMK A01 T10441085  RH  073%=      5-min Rain = 0
KDO1 230503Z 32006KT M04/M09 A3016 RMK A01 T10441085  RH  073%=      5-min Rain = 0
KDO1 230504Z 32006KT M04/M09 A3016 RMK A01 T10441085  RH  073%=      5-min Rain = 0
KDO1 230505Z 32007KT M04/M09 A3016 RMK A01 T10441085  RH  073%=      5-min Rain = 0
KDO1 230506Z 32005KT M05/M09 A3016 RMK A01 T10451085  RH  073%=      5-min Rain = 0
KDO1 230507Z 32005KT M05/M09 A3016 RMK A01 T10451085  RH  073%=      5-min Rain = 0
KDO1 230508Z 32006KT M04/M09 A3017 RMK A01 T10441085  RH  073%=      5-min Rain = 0
KDO1 230509Z 33005KT M05/M09 A3017 RMK A01 T10451085  RH  073%=      5-min Rain = 0
KDO1 230510Z 32007KT M05/M09 A3017 RMK A01 T10451085  RH  073%=      5-min Rain = 0
KDO1 230511Z 32006KT M05/M09 A3017 RMK A01 T10451085  RH  074%=      5-min Rain = 0
KDO1 230512Z 32006KT M04/M09 A3017 RMK A01 T10441085  RH  073%=      5-min Rain = 0
KDO1 230513Z 32006KT M04/M09 A3017 RMK A01 T10441085  RH  073%=      5-min Rain = 0
KDO1 230514Z 32006KT M04/M09 A3017 RMK A01 T10441085  RH  073%=      5-min Rain = 0
KDO1 230515Z 32006KT M04/M09 A3017 RMK A01 T10441085  RH  073%=      5-min Rain = 0
KDO1 230516Z 32005KT M04/M09 A3017 RMK A01 T10441085  RH  073%=      5-min Rain = 0
KDO1 230517Z 32007KT M04/M08 A3017 RMK A01 T10441084  RH  073%=      5-min Rain = 0
KDO1 230518Z 32007KT M04/M08 A3017 RMK A01 T10441084  RH  073%=      5-min Rain = 0
KDO1 230519Z 33008KT M04/M09 A3017 RMK A01 T10441085  RH  073%=      5-min Rain = 0
KDO1 230520Z 33007KT M04/M08 A3017 RMK A01 T10431084  RH  073%=      5-min Rain = 0
KDO1 230521Z 32007KT M04/M08 A3017 RMK A01 T10421084  RH  072%=      5-min Rain = 0
KDO1 230522Z 33006KT M04/M08 A3017 RMK A01 T10421084  RH  073%=      5-min Rain = 0
KDO1 230523Z 33007KT M04/M08 A3017 RMK A01 T10421084  RH  073%=      5-min Rain = 0
KDO1 230524Z 32008KT M04/M08 A3017 RMK A01 T10431084  RH  073%=      5-min Rain = 0
KDO1 230525Z 33007KT M04/M08 A3017 RMK A01 T10431084  RH  073%=      5-min Rain = 0
KDO1 230526Z 33007KT M04/M08 A3017 RMK A01 T10431084  RH  073%=      5-min Rain = 0
KDO1 230527Z 33007KT M04/M09 A3017 RMK A01 T10431085  RH  073%=      5-min Rain = 0
KDO1 230528Z 32007KT M04/M09 A3017 RMK A01 T10441085  RH  073%=      5-min Rain = 0
KDO1 230529Z 32007KT M04/M08 A3017 RMK A01 T10441084  RH  073%=      5-min Rain = 0
KDO1 230530Z 32007KT M04/M08 A3017 RMK A01 T10441084  RH  073%=      5-min Rain = 0
KDO1 230531Z 32008KT M04/M08 A3017 RMK A01 T10441084  RH  074%=      5-min Rain = 0
KDO1 230532Z 33008KT M04/M08 A3017 RMK A01 T10441084  RH  074%=      5-min Rain = 0
KDO1 230533Z 33006KT M04/M08 A3017 RMK A01 T10441084  RH  074%=      5-min Rain = 0
KDO1 230534Z 32007KT M05/M08 A3017 RMK A01 T10451084  RH  074%=      5-min Rain = 0
KDO1 230535Z 33008KT M05/M08 A3017 RMK A01 T10451084  RH  074%=      5-min Rain = 0
KDO1 230536Z 33007KT M05/M08 A3017 RMK A01 T10451084  RH  074%=      5-min Rain = 0
KDO1 230537Z 32007KT M05/M08 A3017 RMK A01 T10451084  RH  074%=      5-min Rain = 0
KDO1 230538Z 32007KT M04/M08 A3017 RMK A01 T10441084  RH  074%=      5-min Rain = 0
KDO1 230539Z 32007KT M04/M08 A3017 RMK A01 T10441084  RH  074%=      5-min Rain = 0
KDO1 230540Z 33007KT M04/M08 A3017 RMK A01 T10441084  RH  074%=      5-min Rain = 0
KDO1 230541Z 33007KT M04/M08 A3017 RMK A01 T10441084  RH  074%=      5-min Rain = 0
KDO1 230542Z 34006KT M04/M08 A3017 RMK A01 T10441084  RH  074%=      5-min Rain = 0
KDO1 230543Z 33007KT M04/M08 A3017 RMK A01 T10441084  RH  073%=      5-min Rain = 0
KDO1 230544Z 34006KT M04/M08 A3017 RMK A01 T10431084  RH  073%=      5-min Rain = 0
KDO1 230545Z 34006KT M04/M08 A3017 RMK A01 T10431084  RH  073%=      5-min Rain = 0
KDO1 230546Z 33006KT M04/M08 A3017 RMK A01 T10431084  RH  073%=      5-min Rain = 0
KDO1 230547Z 34006KT M04/M08 A3017 RMK A01 T10431084  RH  073%=      5-min Rain = 0
KDO1 230548Z 34006KT M04/M08 A3017 RMK A01 T10431084  RH  073%=      5-min Rain = 0
KDO1 230549Z 34006KT M04/M08 A3017 RMK A01 T10441084  RH  074%=      5-min Rain = 0
KDO1 230550Z 34006KT M04/M08 A3017 RMK A01 T10441084  RH  074%=      5-min Rain = 0
KDO1 230551Z 34006KT M04/M08 A3017 RMK A01 T10441084  RH  074%=      5-min Rain = 0
KDO1 230552Z 34006KT M04/M08 A3017 RMK A01 T10441084  RH  074%=      5-min Rain = 0
KDO1 230553Z 34006KT M04/M08 A3017 RMK A01 T10441084  RH  074%=      5-min Rain = 0
KDO1 230554Z 35006KT M04/M08 A3017 RMK A01 T10441084  RH  073%=      5-min Rain = 0
KDO1 230555Z 34006KT M04/M08 A3017 RMK A01 T10441084  RH  074%=      5-min Rain = 0
KDO1 230556Z 34006KT M05/M08 A3017 RMK A01 T10451084  RH  074%=      5-min Rain = 0
KDO1 230557Z 34007KT M05/M09 A3017 RMK A01 T10451085  RH  074%=      5-min Rain = 0
KDO1 230558Z 34006KT M05/M09 A3017 RMK A01 T10461085  RH  074%=      5-min Rain = 0
KDO1 230559Z 34007KT M05/M08 A3017 RMK A01 T10451084  RH  074%=      5-min Rain = 0

Page generated in 0.0885 seconds.